<?xml version="1.0" encoding="UTF-8" standalone="no" ?>
<gpx xmlns="http://www.topografix.com/GPX/1/1" xmlns:xsi="http://www.w3.org/2001/XMLSchema-instance" xsi:schemaLocation="http://www.topografix.com/GPX/1/1 http://www.topografix.com/GPX/1/1/gpx.xsd" version="1.1" creator="VisuGPX - https://www.visugpx.com">
  <metadata>
    <name>Lac d\'estaens (Espagne)</name>
    <desc><![CDATA[Une belle balade, avec le départ/arrivée en France, dans le col du Somport. La partie basse est très boisée et agréable par grande chaleur. Le lac est très limpide, et on peut y observer de belles truites en bordure des herbiers. A proximité du lac un beau précipice de 3 ou 400m.]]></desc>
  </metadata>
  <trk>
    <name><![CDATA[Tracé actuel: 17 JUIL 2012 10:39]]></name>
    <trkseg>
      <trkpt lat="42.79707" lon="-0.55534">
        <ele>1319.07</ele>
        <time>2012-07-17T08:39:51Z</time>
      </trkpt>
      <trkpt lat="42.79715" lon="-0.5553">
        <ele>1320.51</ele>
        <time>2012-07-17T08:40:55Z</time>
      </trkpt>
      <trkpt lat="42.79725" lon="-0.55525">
        <ele>1319.55</ele>
        <time>2012-07-17T08:41:05Z</time>
      </trkpt>
      <trkpt lat="42.79735" lon="-0.55524">
        <ele>1319.55</ele>
        <time>2012-07-17T08:41:14Z</time>
      </trkpt>
      <trkpt lat="42.79739" lon="-0.55539">
        <ele>1318.59</ele>
        <time>2012-07-17T08:41:23Z</time>
      </trkpt>
      <trkpt lat="42.79731" lon="-0.55547">
        <ele>1317.62</ele>
        <time>2012-07-17T08:41:33Z</time>
      </trkpt>
      <trkpt lat="42.79724" lon="-0.55558">
        <ele>1317.14</ele>
        <time>2012-07-17T08:41:44Z</time>
      </trkpt>
      <trkpt lat="42.79713" lon="-0.55567">
        <ele>1316.66</ele>
        <time>2012-07-17T08:41:54Z</time>
      </trkpt>
      <trkpt lat="42.79705" lon="-0.55573">
        <ele>1315.7</ele>
        <time>2012-07-17T08:42:02Z</time>
      </trkpt>
      <trkpt lat="42.79697" lon="-0.55582">
        <ele>1315.22</ele>
        <time>2012-07-17T08:42:11Z</time>
      </trkpt>
      <trkpt lat="42.79691" lon="-0.5559">
        <ele>1313.3</ele>
        <time>2012-07-17T08:42:25Z</time>
      </trkpt>
      <trkpt lat="42.79687" lon="-0.55603">
        <ele>1313.3</ele>
        <time>2012-07-17T08:42:31Z</time>
      </trkpt>
      <trkpt lat="42.79677" lon="-0.55615">
        <ele>1312.82</ele>
        <time>2012-07-17T08:42:40Z</time>
      </trkpt>
      <trkpt lat="42.79671" lon="-0.55624">
        <ele>1312.34</ele>
        <time>2012-07-17T08:42:49Z</time>
      </trkpt>
      <trkpt lat="42.79666" lon="-0.55633">
        <ele>1312.82</ele>
        <time>2012-07-17T08:43:00Z</time>
      </trkpt>
      <trkpt lat="42.79664" lon="-0.55649">
        <ele>1313.3</ele>
        <time>2012-07-17T08:43:21Z</time>
      </trkpt>
      <trkpt lat="42.79672" lon="-0.55653">
        <ele>1311.86</ele>
        <time>2012-07-17T08:43:41Z</time>
      </trkpt>
      <trkpt lat="42.79681" lon="-0.55648">
        <ele>1311.86</ele>
        <time>2012-07-17T08:43:48Z</time>
      </trkpt>
      <trkpt lat="42.79687" lon="-0.55657">
        <ele>1313.3</ele>
        <time>2012-07-17T08:43:59Z</time>
      </trkpt>
      <trkpt lat="42.79696" lon="-0.55656">
        <ele>1316.18</ele>
        <time>2012-07-17T08:44:21Z</time>
      </trkpt>
      <trkpt lat="42.79705" lon="-0.55658">
        <ele>1317.14</ele>
        <time>2012-07-17T08:44:34Z</time>
      </trkpt>
      <trkpt lat="42.79712" lon="-0.55666">
        <ele>1317.62</ele>
        <time>2012-07-17T08:44:41Z</time>
      </trkpt>
      <trkpt lat="42.79723" lon="-0.55678">
        <ele>1318.59</ele>
        <time>2012-07-17T08:44:49Z</time>
      </trkpt>
      <trkpt lat="42.79728" lon="-0.55687">
        <ele>1318.1</ele>
        <time>2012-07-17T08:45:00Z</time>
      </trkpt>
      <trkpt lat="42.79723" lon="-0.55698">
        <ele>1318.1</ele>
        <time>2012-07-17T08:45:10Z</time>
      </trkpt>
      <trkpt lat="42.79727" lon="-0.55708">
        <ele>1318.59</ele>
        <time>2012-07-17T08:45:29Z</time>
      </trkpt>
      <trkpt lat="42.79729" lon="-0.55721">
        <ele>1319.55</ele>
        <time>2012-07-17T08:45:40Z</time>
      </trkpt>
      <trkpt lat="42.79726" lon="-0.55733">
        <ele>1320.51</ele>
        <time>2012-07-17T08:45:48Z</time>
      </trkpt>
      <trkpt lat="42.79721" lon="-0.55744">
        <ele>1320.99</ele>
        <time>2012-07-17T08:45:57Z</time>
      </trkpt>
      <trkpt lat="42.79715" lon="-0.55753">
        <ele>1320.99</ele>
        <time>2012-07-17T08:46:06Z</time>
      </trkpt>
      <trkpt lat="42.79716" lon="-0.55766">
        <ele>1321.95</ele>
        <time>2012-07-17T08:46:18Z</time>
      </trkpt>
      <trkpt lat="42.79716" lon="-0.55777">
        <ele>1324.83</ele>
        <time>2012-07-17T08:46:56Z</time>
      </trkpt>
      <trkpt lat="42.79726" lon="-0.55776">
        <ele>1327.24</ele>
        <time>2012-07-17T08:47:24Z</time>
      </trkpt>
      <trkpt lat="42.79735" lon="-0.55776">
        <ele>1329.16</ele>
        <time>2012-07-17T08:47:53Z</time>
      </trkpt>
      <trkpt lat="42.79749" lon="-0.5577">
        <ele>1332.52</ele>
        <time>2012-07-17T08:48:16Z</time>
      </trkpt>
      <trkpt lat="42.79758" lon="-0.55765">
        <ele>1333.97</ele>
        <time>2012-07-17T08:48:27Z</time>
      </trkpt>
      <trkpt lat="42.79768" lon="-0.55763">
        <ele>1335.89</ele>
        <time>2012-07-17T08:48:54Z</time>
      </trkpt>
      <trkpt lat="42.79779" lon="-0.55769">
        <ele>1340.22</ele>
        <time>2012-07-17T08:49:30Z</time>
      </trkpt>
      <trkpt lat="42.79783" lon="-0.55776">
        <ele>1343.1</ele>
        <time>2012-07-17T08:50:03Z</time>
      </trkpt>
      <trkpt lat="42.7978" lon="-0.55787">
        <ele>1344.06</ele>
        <time>2012-07-17T08:50:29Z</time>
      </trkpt>
      <trkpt lat="42.79782" lon="-0.55798">
        <ele>1346.46</ele>
        <time>2012-07-17T08:51:01Z</time>
      </trkpt>
      <trkpt lat="42.79792" lon="-0.55795">
        <ele>1346.94</ele>
        <time>2012-07-17T08:51:15Z</time>
      </trkpt>
      <trkpt lat="42.798" lon="-0.55789">
        <ele>1347.43</ele>
        <time>2012-07-17T08:51:30Z</time>
      </trkpt>
      <trkpt lat="42.79807" lon="-0.55783">
        <ele>1348.39</ele>
        <time>2012-07-17T08:51:43Z</time>
      </trkpt>
      <trkpt lat="42.79816" lon="-0.5578">
        <ele>1350.79</ele>
        <time>2012-07-17T08:51:55Z</time>
      </trkpt>
      <trkpt lat="42.79825" lon="-0.55775">
        <ele>1352.23</ele>
        <time>2012-07-17T08:52:08Z</time>
      </trkpt>
      <trkpt lat="42.79833" lon="-0.55772">
        <ele>1355.12</ele>
        <time>2012-07-17T08:52:33Z</time>
      </trkpt>
      <trkpt lat="42.79841" lon="-0.55766">
        <ele>1356.56</ele>
        <time>2012-07-17T08:52:45Z</time>
      </trkpt>
      <trkpt lat="42.7985" lon="-0.55757">
        <ele>1357.52</ele>
        <time>2012-07-17T08:52:55Z</time>
      </trkpt>
      <trkpt lat="42.79859" lon="-0.55755">
        <ele>1358</ele>
        <time>2012-07-17T08:53:14Z</time>
      </trkpt>
      <trkpt lat="42.79868" lon="-0.55754">
        <ele>1358.96</ele>
        <time>2012-07-17T08:53:24Z</time>
      </trkpt>
      <trkpt lat="42.79874" lon="-0.55753">
        <ele>1361.84</ele>
        <time>2012-07-17T08:54:00Z</time>
      </trkpt>
      <trkpt lat="42.79888" lon="-0.5575">
        <ele>1364.73</ele>
        <time>2012-07-17T08:54:17Z</time>
      </trkpt>
      <trkpt lat="42.79897" lon="-0.5575">
        <ele>1364.73</ele>
        <time>2012-07-17T08:54:24Z</time>
      </trkpt>
      <trkpt lat="42.79906" lon="-0.55751">
        <ele>1366.17</ele>
        <time>2012-07-17T08:54:35Z</time>
      </trkpt>
      <trkpt lat="42.79924" lon="-0.55751">
        <ele>1366.65</ele>
        <time>2012-07-17T08:56:55Z</time>
      </trkpt>
      <trkpt lat="42.7992" lon="-0.55757">
        <ele>1369.54</ele>
        <time>2012-07-17T08:59:34Z</time>
      </trkpt>
      <trkpt lat="42.79916" lon="-0.55764">
        <ele>1370.5</ele>
        <time>2012-07-17T08:59:54Z</time>
      </trkpt>
      <trkpt lat="42.79909" lon="-0.55772">
        <ele>1371.46</ele>
        <time>2012-07-17T09:00:02Z</time>
      </trkpt>
      <trkpt lat="42.79905" lon="-0.55783">
        <ele>1372.9</ele>
        <time>2012-07-17T09:00:19Z</time>
      </trkpt>
      <trkpt lat="42.79897" lon="-0.55794">
        <ele>1374.34</ele>
        <time>2012-07-17T09:00:33Z</time>
      </trkpt>
      <trkpt lat="42.79895" lon="-0.55802">
        <ele>1377.23</ele>
        <time>2012-07-17T09:00:58Z</time>
      </trkpt>
      <trkpt lat="42.79903" lon="-0.55795">
        <ele>1377.71</ele>
        <time>2012-07-17T09:01:05Z</time>
      </trkpt>
      <trkpt lat="42.79913" lon="-0.55794">
        <ele>1378.67</ele>
        <time>2012-07-17T09:01:14Z</time>
      </trkpt>
      <trkpt lat="42.79927" lon="-0.55788">
        <ele>1381.07</ele>
        <time>2012-07-17T09:01:35Z</time>
      </trkpt>
      <trkpt lat="42.79935" lon="-0.55783">
        <ele>1382.51</ele>
        <time>2012-07-17T09:01:50Z</time>
      </trkpt>
      <trkpt lat="42.79944" lon="-0.55784">
        <ele>1383.96</ele>
        <time>2012-07-17T09:02:00Z</time>
      </trkpt>
      <trkpt lat="42.79957" lon="-0.55782">
        <ele>1385.4</ele>
        <time>2012-07-17T09:02:16Z</time>
      </trkpt>
      <trkpt lat="42.79964" lon="-0.55777">
        <ele>1387.32</ele>
        <time>2012-07-17T09:02:26Z</time>
      </trkpt>
      <trkpt lat="42.79974" lon="-0.55777">
        <ele>1388.76</ele>
        <time>2012-07-17T09:02:41Z</time>
      </trkpt>
      <trkpt lat="42.79983" lon="-0.55775">
        <ele>1389.72</ele>
        <time>2012-07-17T09:02:59Z</time>
      </trkpt>
      <trkpt lat="42.79991" lon="-0.55771">
        <ele>1391.17</ele>
        <time>2012-07-17T09:03:07Z</time>
      </trkpt>
      <trkpt lat="42.80001" lon="-0.5577">
        <ele>1392.13</ele>
        <time>2012-07-17T09:03:19Z</time>
      </trkpt>
      <trkpt lat="42.80008" lon="-0.55762">
        <ele>1395.97</ele>
        <time>2012-07-17T09:03:58Z</time>
      </trkpt>
      <trkpt lat="42.80026" lon="-0.5576">
        <ele>1396.93</ele>
        <time>2012-07-17T09:04:06Z</time>
      </trkpt>
      <trkpt lat="42.80044" lon="-0.55757">
        <ele>1397.89</ele>
        <time>2012-07-17T09:04:15Z</time>
      </trkpt>
      <trkpt lat="42.80051" lon="-0.55755">
        <ele>1398.37</ele>
        <time>2012-07-17T09:05:06Z</time>
      </trkpt>
      <trkpt lat="42.8006" lon="-0.55755">
        <ele>1399.82</ele>
        <time>2012-07-17T09:05:27Z</time>
      </trkpt>
      <trkpt lat="42.8007" lon="-0.55753">
        <ele>1401.26</ele>
        <time>2012-07-17T09:05:38Z</time>
      </trkpt>
      <trkpt lat="42.80078" lon="-0.5575">
        <ele>1402.22</ele>
        <time>2012-07-17T09:05:50Z</time>
      </trkpt>
      <trkpt lat="42.80086" lon="-0.55749">
        <ele>1403.66</ele>
        <time>2012-07-17T09:06:02Z</time>
      </trkpt>
      <trkpt lat="42.80092" lon="-0.55763">
        <ele>1405.1</ele>
        <time>2012-07-17T09:06:13Z</time>
      </trkpt>
      <trkpt lat="42.8009" lon="-0.55775">
        <ele>1405.58</ele>
        <time>2012-07-17T09:06:25Z</time>
      </trkpt>
      <trkpt lat="42.80091" lon="-0.55783">
        <ele>1407.03</ele>
        <time>2012-07-17T09:07:47Z</time>
      </trkpt>
      <trkpt lat="42.80089" lon="-0.55795">
        <ele>1407.51</ele>
        <time>2012-07-17T09:07:59Z</time>
      </trkpt>
      <trkpt lat="42.80091" lon="-0.55805">
        <ele>1407.99</ele>
        <time>2012-07-17T09:08:08Z</time>
      </trkpt>
      <trkpt lat="42.80098" lon="-0.55813">
        <ele>1409.43</ele>
        <time>2012-07-17T09:08:21Z</time>
      </trkpt>
      <trkpt lat="42.80103" lon="-0.55824">
        <ele>1410.87</ele>
        <time>2012-07-17T09:08:35Z</time>
      </trkpt>
      <trkpt lat="42.80107" lon="-0.55834">
        <ele>1411.83</ele>
        <time>2012-07-17T09:08:50Z</time>
      </trkpt>
      <trkpt lat="42.80111" lon="-0.55844">
        <ele>1413.76</ele>
        <time>2012-07-17T09:09:06Z</time>
      </trkpt>
      <trkpt lat="42.80108" lon="-0.55856">
        <ele>1414.72</ele>
        <time>2012-07-17T09:09:18Z</time>
      </trkpt>
      <trkpt lat="42.80111" lon="-0.55867">
        <ele>1417.12</ele>
        <time>2012-07-17T09:09:56Z</time>
      </trkpt>
      <trkpt lat="42.80116" lon="-0.55877">
        <ele>1418.56</ele>
        <time>2012-07-17T09:10:31Z</time>
      </trkpt>
      <trkpt lat="42.80125" lon="-0.55884">
        <ele>1420</ele>
        <time>2012-07-17T09:10:44Z</time>
      </trkpt>
      <trkpt lat="42.80134" lon="-0.55887">
        <ele>1421.45</ele>
        <time>2012-07-17T09:11:09Z</time>
      </trkpt>
      <trkpt lat="42.80143" lon="-0.55892">
        <ele>1423.37</ele>
        <time>2012-07-17T09:11:26Z</time>
      </trkpt>
      <trkpt lat="42.80143" lon="-0.55903">
        <ele>1424.33</ele>
        <time>2012-07-17T09:11:36Z</time>
      </trkpt>
      <trkpt lat="42.80135" lon="-0.55913">
        <ele>1425.29</ele>
        <time>2012-07-17T09:11:45Z</time>
      </trkpt>
      <trkpt lat="42.80127" lon="-0.55915">
        <ele>1426.73</ele>
        <time>2012-07-17T09:11:57Z</time>
      </trkpt>
      <trkpt lat="42.8012" lon="-0.55908">
        <ele>1427.21</ele>
        <time>2012-07-17T09:12:07Z</time>
      </trkpt>
      <trkpt lat="42.80113" lon="-0.55899">
        <ele>1427.7</ele>
        <time>2012-07-17T09:12:17Z</time>
      </trkpt>
      <trkpt lat="42.80105" lon="-0.55893">
        <ele>1428.66</ele>
        <time>2012-07-17T09:12:29Z</time>
      </trkpt>
      <trkpt lat="42.80098" lon="-0.55885">
        <ele>1430.1</ele>
        <time>2012-07-17T09:12:44Z</time>
      </trkpt>
      <trkpt lat="42.80092" lon="-0.55879">
        <ele>1432.5</ele>
        <time>2012-07-17T09:13:05Z</time>
      </trkpt>
      <trkpt lat="42.80085" lon="-0.55871">
        <ele>1435.87</ele>
        <time>2012-07-17T09:13:33Z</time>
      </trkpt>
      <trkpt lat="42.80077" lon="-0.55866">
        <ele>1437.31</ele>
        <time>2012-07-17T09:13:46Z</time>
      </trkpt>
      <trkpt lat="42.80069" lon="-0.55862">
        <ele>1438.27</ele>
        <time>2012-07-17T09:13:58Z</time>
      </trkpt>
      <trkpt lat="42.8006" lon="-0.55856">
        <ele>1440.19</ele>
        <time>2012-07-17T09:14:10Z</time>
      </trkpt>
      <trkpt lat="42.80051" lon="-0.55857">
        <ele>1441.15</ele>
        <time>2012-07-17T09:14:20Z</time>
      </trkpt>
      <trkpt lat="42.80043" lon="-0.55862">
        <ele>1442.11</ele>
        <time>2012-07-17T09:14:34Z</time>
      </trkpt>
      <trkpt lat="42.80035" lon="-0.55868">
        <ele>1443.08</ele>
        <time>2012-07-17T09:14:46Z</time>
      </trkpt>
      <trkpt lat="42.80027" lon="-0.55874">
        <ele>1446.44</ele>
        <time>2012-07-17T09:15:10Z</time>
      </trkpt>
      <trkpt lat="42.80022" lon="-0.55883">
        <ele>1447.4</ele>
        <time>2012-07-17T09:17:21Z</time>
      </trkpt>
      <trkpt lat="42.80015" lon="-0.55875">
        <ele>1447.4</ele>
        <time>2012-07-17T09:17:37Z</time>
      </trkpt>
      <trkpt lat="42.80013" lon="-0.55895">
        <ele>1447.4</ele>
        <time>2012-07-17T09:18:05Z</time>
      </trkpt>
      <trkpt lat="42.80017" lon="-0.55899">
        <ele>1448.36</ele>
        <time>2012-07-17T09:19:15Z</time>
      </trkpt>
      <trkpt lat="42.80026" lon="-0.55906">
        <ele>1450.29</ele>
        <time>2012-07-17T09:19:33Z</time>
      </trkpt>
      <trkpt lat="42.80033" lon="-0.55909">
        <ele>1453.17</ele>
        <time>2012-07-17T09:19:50Z</time>
      </trkpt>
      <trkpt lat="42.80043" lon="-0.55911">
        <ele>1453.17</ele>
        <time>2012-07-17T09:19:59Z</time>
      </trkpt>
      <trkpt lat="42.80047" lon="-0.55925">
        <ele>1455.57</ele>
        <time>2012-07-17T09:20:22Z</time>
      </trkpt>
      <trkpt lat="42.80053" lon="-0.55935">
        <ele>1456.53</ele>
        <time>2012-07-17T09:20:36Z</time>
      </trkpt>
      <trkpt lat="42.80057" lon="-0.55944">
        <ele>1457.98</ele>
        <time>2012-07-17T09:20:47Z</time>
      </trkpt>
      <trkpt lat="42.80062" lon="-0.55954">
        <ele>1458.94</ele>
        <time>2012-07-17T09:21:06Z</time>
      </trkpt>
      <trkpt lat="42.80066" lon="-0.55966">
        <ele>1460.86</ele>
        <time>2012-07-17T09:21:16Z</time>
      </trkpt>
      <trkpt lat="42.80067" lon="-0.55979">
        <ele>1462.78</ele>
        <time>2012-07-17T09:21:32Z</time>
      </trkpt>
      <trkpt lat="42.80066" lon="-0.55991">
        <ele>1464.23</ele>
        <time>2012-07-17T09:21:43Z</time>
      </trkpt>
      <trkpt lat="42.80063" lon="-0.56009">
        <ele>1466.63</ele>
        <time>2012-07-17T09:22:06Z</time>
      </trkpt>
      <trkpt lat="42.80061" lon="-0.56021">
        <ele>1467.11</ele>
        <time>2012-07-17T09:22:14Z</time>
      </trkpt>
      <trkpt lat="42.80063" lon="-0.56031">
        <ele>1469.51</ele>
        <time>2012-07-17T09:22:30Z</time>
      </trkpt>
      <trkpt lat="42.80061" lon="-0.56043">
        <ele>1471.92</ele>
        <time>2012-07-17T09:22:56Z</time>
      </trkpt>
      <trkpt lat="42.80056" lon="-0.56054">
        <ele>1473.36</ele>
        <time>2012-07-17T09:23:09Z</time>
      </trkpt>
      <trkpt lat="42.80049" lon="-0.56061">
        <ele>1475.76</ele>
        <time>2012-07-17T09:23:26Z</time>
      </trkpt>
      <trkpt lat="42.80042" lon="-0.56068">
        <ele>1477.68</ele>
        <time>2012-07-17T09:23:45Z</time>
      </trkpt>
      <trkpt lat="42.80035" lon="-0.56073">
        <ele>1479.61</ele>
        <time>2012-07-17T09:24:00Z</time>
      </trkpt>
      <trkpt lat="42.80025" lon="-0.56078">
        <ele>1480.57</ele>
        <time>2012-07-17T09:24:11Z</time>
      </trkpt>
      <trkpt lat="42.80016" lon="-0.56081">
        <ele>1481.53</ele>
        <time>2012-07-17T09:24:23Z</time>
      </trkpt>
      <trkpt lat="42.80008" lon="-0.56086">
        <ele>1482.49</ele>
        <time>2012-07-17T09:24:33Z</time>
      </trkpt>
      <trkpt lat="42.8" lon="-0.56093">
        <ele>1482.97</ele>
        <time>2012-07-17T09:24:47Z</time>
      </trkpt>
      <trkpt lat="42.79994" lon="-0.56103">
        <ele>1483.93</ele>
        <time>2012-07-17T09:24:58Z</time>
      </trkpt>
      <trkpt lat="42.79989" lon="-0.56113">
        <ele>1484.89</ele>
        <time>2012-07-17T09:25:10Z</time>
      </trkpt>
      <trkpt lat="42.79986" lon="-0.56124">
        <ele>1485.85</ele>
        <time>2012-07-17T09:25:25Z</time>
      </trkpt>
      <trkpt lat="42.79983" lon="-0.56135">
        <ele>1487.78</ele>
        <time>2012-07-17T09:25:42Z</time>
      </trkpt>
      <trkpt lat="42.79988" lon="-0.56145">
        <ele>1489.22</ele>
        <time>2012-07-17T09:26:01Z</time>
      </trkpt>
      <trkpt lat="42.79986" lon="-0.56157">
        <ele>1492.1</ele>
        <time>2012-07-17T09:26:21Z</time>
      </trkpt>
      <trkpt lat="42.79985" lon="-0.56167">
        <ele>1494.03</ele>
        <time>2012-07-17T09:26:37Z</time>
      </trkpt>
      <trkpt lat="42.79983" lon="-0.56179">
        <ele>1496.91</ele>
        <time>2012-07-17T09:27:04Z</time>
      </trkpt>
      <trkpt lat="42.79981" lon="-0.56191">
        <ele>1498.83</ele>
        <time>2012-07-17T09:27:24Z</time>
      </trkpt>
      <trkpt lat="42.79985" lon="-0.56202">
        <ele>1501.24</ele>
        <time>2012-07-17T09:27:39Z</time>
      </trkpt>
      <trkpt lat="42.79987" lon="-0.56213">
        <ele>1503.16</ele>
        <time>2012-07-17T09:27:54Z</time>
      </trkpt>
      <trkpt lat="42.79997" lon="-0.56214">
        <ele>1504.12</ele>
        <time>2012-07-17T09:28:05Z</time>
      </trkpt>
      <trkpt lat="42.80004" lon="-0.5622">
        <ele>1506.04</ele>
        <time>2012-07-17T09:28:31Z</time>
      </trkpt>
      <trkpt lat="42.80013" lon="-0.56227">
        <ele>1506.52</ele>
        <time>2012-07-17T09:28:41Z</time>
      </trkpt>
      <trkpt lat="42.80017" lon="-0.5623">
        <ele>1506.52</ele>
        <time>2012-07-17T09:28:58Z</time>
      </trkpt>
      <trkpt lat="42.80021" lon="-0.56233">
        <ele>1508.45</ele>
        <time>2012-07-17T09:34:29Z</time>
      </trkpt>
      <trkpt lat="42.80031" lon="-0.56229">
        <ele>1509.41</ele>
        <time>2012-07-17T09:34:43Z</time>
      </trkpt>
      <trkpt lat="42.80041" lon="-0.56228">
        <ele>1510.85</ele>
        <time>2012-07-17T09:34:57Z</time>
      </trkpt>
      <trkpt lat="42.80051" lon="-0.56226">
        <ele>1512.77</ele>
        <time>2012-07-17T09:35:09Z</time>
      </trkpt>
      <trkpt lat="42.8006" lon="-0.56226">
        <ele>1514.21</ele>
        <time>2012-07-17T09:35:23Z</time>
      </trkpt>
      <trkpt lat="42.80069" lon="-0.56227">
        <ele>1515.66</ele>
        <time>2012-07-17T09:35:40Z</time>
      </trkpt>
      <trkpt lat="42.80079" lon="-0.56228">
        <ele>1518.06</ele>
        <time>2012-07-17T09:36:07Z</time>
      </trkpt>
      <trkpt lat="42.8009" lon="-0.56232">
        <ele>1519.5</ele>
        <time>2012-07-17T09:36:21Z</time>
      </trkpt>
      <trkpt lat="42.80096" lon="-0.56242">
        <ele>1521.42</ele>
        <time>2012-07-17T09:36:40Z</time>
      </trkpt>
      <trkpt lat="42.80096" lon="-0.56254">
        <ele>1522.39</ele>
        <time>2012-07-17T09:36:58Z</time>
      </trkpt>
      <trkpt lat="42.80098" lon="-0.56266">
        <ele>1523.83</ele>
        <time>2012-07-17T09:37:16Z</time>
      </trkpt>
      <trkpt lat="42.80103" lon="-0.56277">
        <ele>1525.75</ele>
        <time>2012-07-17T09:37:29Z</time>
      </trkpt>
      <trkpt lat="42.80103" lon="-0.56282">
        <ele>1527.19</ele>
        <time>2012-07-17T09:37:47Z</time>
      </trkpt>
      <trkpt lat="42.80095" lon="-0.56276">
        <ele>1528.15</ele>
        <time>2012-07-17T09:38:17Z</time>
      </trkpt>
      <trkpt lat="42.80087" lon="-0.5627">
        <ele>1530.08</ele>
        <time>2012-07-17T09:38:33Z</time>
      </trkpt>
      <trkpt lat="42.8008" lon="-0.56263">
        <ele>1531.52</ele>
        <time>2012-07-17T09:38:47Z</time>
      </trkpt>
      <trkpt lat="42.80071" lon="-0.56265">
        <ele>1532.48</ele>
        <time>2012-07-17T09:39:00Z</time>
      </trkpt>
      <trkpt lat="42.80064" lon="-0.56272">
        <ele>1533.92</ele>
        <time>2012-07-17T09:39:14Z</time>
      </trkpt>
      <trkpt lat="42.80058" lon="-0.56282">
        <ele>1535.36</ele>
        <time>2012-07-17T09:39:29Z</time>
      </trkpt>
      <trkpt lat="42.80052" lon="-0.56293">
        <ele>1537.29</ele>
        <time>2012-07-17T09:39:43Z</time>
      </trkpt>
      <trkpt lat="42.80046" lon="-0.56302">
        <ele>1538.25</ele>
        <time>2012-07-17T09:39:58Z</time>
      </trkpt>
      <trkpt lat="42.80041" lon="-0.56314">
        <ele>1540.17</ele>
        <time>2012-07-17T09:40:14Z</time>
      </trkpt>
      <trkpt lat="42.80035" lon="-0.56324">
        <ele>1541.61</ele>
        <time>2012-07-17T09:40:34Z</time>
      </trkpt>
      <trkpt lat="42.80029" lon="-0.56334">
        <ele>1543.05</ele>
        <time>2012-07-17T09:40:49Z</time>
      </trkpt>
      <trkpt lat="42.80037" lon="-0.56333">
        <ele>1544.98</ele>
        <time>2012-07-17T09:41:05Z</time>
      </trkpt>
      <trkpt lat="42.80046" lon="-0.56329">
        <ele>1545.94</ele>
        <time>2012-07-17T09:41:20Z</time>
      </trkpt>
      <trkpt lat="42.80054" lon="-0.56323">
        <ele>1547.38</ele>
        <time>2012-07-17T09:41:38Z</time>
      </trkpt>
      <trkpt lat="42.80063" lon="-0.56323">
        <ele>1548.82</ele>
        <time>2012-07-17T09:41:52Z</time>
      </trkpt>
      <trkpt lat="42.80057" lon="-0.56331">
        <ele>1550.26</ele>
        <time>2012-07-17T09:42:06Z</time>
      </trkpt>
      <trkpt lat="42.8005" lon="-0.5634">
        <ele>1551.71</ele>
        <time>2012-07-17T09:42:24Z</time>
      </trkpt>
      <trkpt lat="42.80045" lon="-0.5635">
        <ele>1553.63</ele>
        <time>2012-07-17T09:42:39Z</time>
      </trkpt>
      <trkpt lat="42.80043" lon="-0.56362">
        <ele>1555.07</ele>
        <time>2012-07-17T09:42:54Z</time>
      </trkpt>
      <trkpt lat="42.8004" lon="-0.56374">
        <ele>1556.51</ele>
        <time>2012-07-17T09:43:09Z</time>
      </trkpt>
      <trkpt lat="42.80038" lon="-0.56385">
        <ele>1557.95</ele>
        <time>2012-07-17T09:43:23Z</time>
      </trkpt>
      <trkpt lat="42.80033" lon="-0.56396">
        <ele>1559.4</ele>
        <time>2012-07-17T09:43:36Z</time>
      </trkpt>
      <trkpt lat="42.80026" lon="-0.56401">
        <ele>1560.84</ele>
        <time>2012-07-17T09:43:49Z</time>
      </trkpt>
      <trkpt lat="42.80022" lon="-0.56403">
        <ele>1562.76</ele>
        <time>2012-07-17T09:47:26Z</time>
      </trkpt>
      <trkpt lat="42.80014" lon="-0.564">
        <ele>1563.24</ele>
        <time>2012-07-17T09:47:36Z</time>
      </trkpt>
      <trkpt lat="42.80008" lon="-0.56391">
        <ele>1564.2</ele>
        <time>2012-07-17T09:47:47Z</time>
      </trkpt>
      <trkpt lat="42.8" lon="-0.56385">
        <ele>1564.2</ele>
        <time>2012-07-17T09:47:57Z</time>
      </trkpt>
      <trkpt lat="42.79991" lon="-0.5638">
        <ele>1567.09</ele>
        <time>2012-07-17T09:48:22Z</time>
      </trkpt>
      <trkpt lat="42.7998" lon="-0.56376">
        <ele>1569.01</ele>
        <time>2012-07-17T09:48:41Z</time>
      </trkpt>
      <trkpt lat="42.79971" lon="-0.56372">
        <ele>1571.89</ele>
        <time>2012-07-17T09:49:01Z</time>
      </trkpt>
      <trkpt lat="42.79961" lon="-0.5637">
        <ele>1573.82</ele>
        <time>2012-07-17T09:49:27Z</time>
      </trkpt>
      <trkpt lat="42.79951" lon="-0.56371">
        <ele>1575.26</ele>
        <time>2012-07-17T09:49:39Z</time>
      </trkpt>
      <trkpt lat="42.79942" lon="-0.56375">
        <ele>1576.22</ele>
        <time>2012-07-17T09:49:51Z</time>
      </trkpt>
      <trkpt lat="42.79932" lon="-0.56379">
        <ele>1578.62</ele>
        <time>2012-07-17T09:50:04Z</time>
      </trkpt>
      <trkpt lat="42.79923" lon="-0.56387">
        <ele>1580.06</ele>
        <time>2012-07-17T09:50:16Z</time>
      </trkpt>
      <trkpt lat="42.79914" lon="-0.56393">
        <ele>1580.54</ele>
        <time>2012-07-17T09:50:32Z</time>
      </trkpt>
      <trkpt lat="42.79905" lon="-0.56397">
        <ele>1582.47</ele>
        <time>2012-07-17T09:50:48Z</time>
      </trkpt>
      <trkpt lat="42.79897" lon="-0.56401">
        <ele>1583.43</ele>
        <time>2012-07-17T09:51:00Z</time>
      </trkpt>
      <trkpt lat="42.79889" lon="-0.56405">
        <ele>1585.83</ele>
        <time>2012-07-17T09:51:20Z</time>
      </trkpt>
      <trkpt lat="42.79884" lon="-0.56414">
        <ele>1588.72</ele>
        <time>2012-07-17T09:51:39Z</time>
      </trkpt>
      <trkpt lat="42.79874" lon="-0.56416">
        <ele>1591.12</ele>
        <time>2012-07-17T09:51:58Z</time>
      </trkpt>
      <trkpt lat="42.79869" lon="-0.56427">
        <ele>1593.52</ele>
        <time>2012-07-17T09:52:17Z</time>
      </trkpt>
      <trkpt lat="42.79861" lon="-0.56434">
        <ele>1595.45</ele>
        <time>2012-07-17T09:52:43Z</time>
      </trkpt>
      <trkpt lat="42.79855" lon="-0.56443">
        <ele>1598.81</ele>
        <time>2012-07-17T09:53:04Z</time>
      </trkpt>
      <trkpt lat="42.7986" lon="-0.56455">
        <ele>1601.21</ele>
        <time>2012-07-17T09:53:16Z</time>
      </trkpt>
      <trkpt lat="42.79866" lon="-0.56463">
        <ele>1603.14</ele>
        <time>2012-07-17T09:53:32Z</time>
      </trkpt>
      <trkpt lat="42.79866" lon="-0.56471">
        <ele>1605.06</ele>
        <time>2012-07-17T09:53:50Z</time>
      </trkpt>
      <trkpt lat="42.79863" lon="-0.5648">
        <ele>1606.98</ele>
        <time>2012-07-17T09:54:06Z</time>
      </trkpt>
      <trkpt lat="42.7986" lon="-0.56491">
        <ele>1609.86</ele>
        <time>2012-07-17T09:54:22Z</time>
      </trkpt>
      <trkpt lat="42.79852" lon="-0.56501">
        <ele>1611.31</ele>
        <time>2012-07-17T09:54:41Z</time>
      </trkpt>
      <trkpt lat="42.79849" lon="-0.56512">
        <ele>1612.75</ele>
        <time>2012-07-17T09:54:54Z</time>
      </trkpt>
      <trkpt lat="42.7985" lon="-0.56525">
        <ele>1614.19</ele>
        <time>2012-07-17T09:55:07Z</time>
      </trkpt>
      <trkpt lat="42.79852" lon="-0.56535">
        <ele>1615.63</ele>
        <time>2012-07-17T09:55:21Z</time>
      </trkpt>
      <trkpt lat="42.79858" lon="-0.56544">
        <ele>1617.07</ele>
        <time>2012-07-17T09:55:35Z</time>
      </trkpt>
      <trkpt lat="42.79867" lon="-0.56553">
        <ele>1618.04</ele>
        <time>2012-07-17T09:55:47Z</time>
      </trkpt>
      <trkpt lat="42.79874" lon="-0.56559">
        <ele>1619.48</ele>
        <time>2012-07-17T09:55:59Z</time>
      </trkpt>
      <trkpt lat="42.79879" lon="-0.56568">
        <ele>1621.88</ele>
        <time>2012-07-17T09:56:13Z</time>
      </trkpt>
      <trkpt lat="42.79886" lon="-0.56575">
        <ele>1623.32</ele>
        <time>2012-07-17T09:56:27Z</time>
      </trkpt>
      <trkpt lat="42.79892" lon="-0.56586">
        <ele>1624.77</ele>
        <time>2012-07-17T09:58:08Z</time>
      </trkpt>
      <trkpt lat="42.79894" lon="-0.56598">
        <ele>1625.73</ele>
        <time>2012-07-17T09:58:22Z</time>
      </trkpt>
      <trkpt lat="42.79898" lon="-0.56605">
        <ele>1627.65</ele>
        <time>2012-07-17T10:04:05Z</time>
      </trkpt>
      <trkpt lat="42.79905" lon="-0.56617">
        <ele>1628.13</ele>
        <time>2012-07-17T10:04:15Z</time>
      </trkpt>
      <trkpt lat="42.79906" lon="-0.5663">
        <ele>1629.57</ele>
        <time>2012-07-17T10:04:25Z</time>
      </trkpt>
      <trkpt lat="42.79908" lon="-0.56643">
        <ele>1630.53</ele>
        <time>2012-07-17T10:04:34Z</time>
      </trkpt>
      <trkpt lat="42.79907" lon="-0.56656">
        <ele>1632.94</ele>
        <time>2012-07-17T10:04:44Z</time>
      </trkpt>
      <trkpt lat="42.79906" lon="-0.56667">
        <ele>1634.86</ele>
        <time>2012-07-17T10:04:56Z</time>
      </trkpt>
      <trkpt lat="42.79903" lon="-0.56679">
        <ele>1636.78</ele>
        <time>2012-07-17T10:05:08Z</time>
      </trkpt>
      <trkpt lat="42.79903" lon="-0.56691">
        <ele>1639.19</ele>
        <time>2012-07-17T10:05:21Z</time>
      </trkpt>
      <trkpt lat="42.79901" lon="-0.56702">
        <ele>1641.59</ele>
        <time>2012-07-17T10:05:34Z</time>
      </trkpt>
      <trkpt lat="42.79905" lon="-0.56713">
        <ele>1643.51</ele>
        <time>2012-07-17T10:05:47Z</time>
      </trkpt>
      <trkpt lat="42.79909" lon="-0.56725">
        <ele>1644.47</ele>
        <time>2012-07-17T10:05:58Z</time>
      </trkpt>
      <trkpt lat="42.79911" lon="-0.56737">
        <ele>1645.91</ele>
        <time>2012-07-17T10:06:11Z</time>
      </trkpt>
      <trkpt lat="42.79914" lon="-0.56749">
        <ele>1647.36</ele>
        <time>2012-07-17T10:06:24Z</time>
      </trkpt>
      <trkpt lat="42.79914" lon="-0.56763">
        <ele>1649.76</ele>
        <time>2012-07-17T10:06:36Z</time>
      </trkpt>
      <trkpt lat="42.79918" lon="-0.56773">
        <ele>1652.16</ele>
        <time>2012-07-17T10:06:50Z</time>
      </trkpt>
      <trkpt lat="42.7992" lon="-0.56785">
        <ele>1652.64</ele>
        <time>2012-07-17T10:07:01Z</time>
      </trkpt>
      <trkpt lat="42.79921" lon="-0.56797">
        <ele>1654.09</ele>
        <time>2012-07-17T10:07:12Z</time>
      </trkpt>
      <trkpt lat="42.7992" lon="-0.56812">
        <ele>1655.05</ele>
        <time>2012-07-17T10:07:24Z</time>
      </trkpt>
      <trkpt lat="42.79922" lon="-0.56825">
        <ele>1656.97</ele>
        <time>2012-07-17T10:07:37Z</time>
      </trkpt>
      <trkpt lat="42.79922" lon="-0.56837">
        <ele>1658.89</ele>
        <time>2012-07-17T10:07:51Z</time>
      </trkpt>
      <trkpt lat="42.79925" lon="-0.5685">
        <ele>1661.3</ele>
        <time>2012-07-17T10:08:05Z</time>
      </trkpt>
      <trkpt lat="42.79928" lon="-0.56863">
        <ele>1663.22</ele>
        <time>2012-07-17T10:08:19Z</time>
      </trkpt>
      <trkpt lat="42.79932" lon="-0.56874">
        <ele>1664.18</ele>
        <time>2012-07-17T10:08:36Z</time>
      </trkpt>
      <trkpt lat="42.79934" lon="-0.56877">
        <ele>1664.18</ele>
        <time>2012-07-17T10:11:42Z</time>
      </trkpt>
      <trkpt lat="42.79935" lon="-0.56879">
        <ele>1664.66</ele>
        <time>2012-07-17T10:13:58Z</time>
      </trkpt>
      <trkpt lat="42.79936" lon="-0.5688">
        <ele>1664.18</ele>
        <time>2012-07-17T10:16:23Z</time>
      </trkpt>
      <trkpt lat="42.79935" lon="-0.5689">
        <ele>1664.18</ele>
        <time>2012-07-17T10:16:59Z</time>
      </trkpt>
      <trkpt lat="42.7994" lon="-0.56899">
        <ele>1663.7</ele>
        <time>2012-07-17T10:17:11Z</time>
      </trkpt>
      <trkpt lat="42.79945" lon="-0.5691">
        <ele>1663.7</ele>
        <time>2012-07-17T10:17:29Z</time>
      </trkpt>
      <trkpt lat="42.79947" lon="-0.56921">
        <ele>1663.22</ele>
        <time>2012-07-17T10:17:41Z</time>
      </trkpt>
      <trkpt lat="42.79944" lon="-0.56932">
        <ele>1662.74</ele>
        <time>2012-07-17T10:17:57Z</time>
      </trkpt>
      <trkpt lat="42.79945" lon="-0.56943">
        <ele>1661.3</ele>
        <time>2012-07-17T10:18:23Z</time>
      </trkpt>
      <trkpt lat="42.79947" lon="-0.56956">
        <ele>1661.78</ele>
        <time>2012-07-17T10:18:32Z</time>
      </trkpt>
      <trkpt lat="42.79953" lon="-0.56966">
        <ele>1662.26</ele>
        <time>2012-07-17T10:18:43Z</time>
      </trkpt>
      <trkpt lat="42.79956" lon="-0.56977">
        <ele>1662.74</ele>
        <time>2012-07-17T10:18:54Z</time>
      </trkpt>
      <trkpt lat="42.79956" lon="-0.5699">
        <ele>1662.74</ele>
        <time>2012-07-17T10:19:03Z</time>
      </trkpt>
      <trkpt lat="42.79958" lon="-0.57002">
        <ele>1663.7</ele>
        <time>2012-07-17T10:19:19Z</time>
      </trkpt>
      <trkpt lat="42.79962" lon="-0.57015">
        <ele>1665.14</ele>
        <time>2012-07-17T10:19:29Z</time>
      </trkpt>
      <trkpt lat="42.79964" lon="-0.57027">
        <ele>1666.58</ele>
        <time>2012-07-17T10:19:42Z</time>
      </trkpt>
      <trkpt lat="42.79966" lon="-0.5704">
        <ele>1667.54</ele>
        <time>2012-07-17T10:19:54Z</time>
      </trkpt>
      <trkpt lat="42.7997" lon="-0.57052">
        <ele>1668.99</ele>
        <time>2012-07-17T10:20:04Z</time>
      </trkpt>
      <trkpt lat="42.79976" lon="-0.5706">
        <ele>1669.95</ele>
        <time>2012-07-17T10:20:16Z</time>
      </trkpt>
      <trkpt lat="42.79977" lon="-0.57073">
        <ele>1671.39</ele>
        <time>2012-07-17T10:20:32Z</time>
      </trkpt>
      <trkpt lat="42.7998" lon="-0.57082">
        <ele>1673.79</ele>
        <time>2012-07-17T10:20:50Z</time>
      </trkpt>
      <trkpt lat="42.79986" lon="-0.57092">
        <ele>1675.23</ele>
        <time>2012-07-17T10:21:04Z</time>
      </trkpt>
      <trkpt lat="42.79992" lon="-0.57101">
        <ele>1678.6</ele>
        <time>2012-07-17T10:21:24Z</time>
      </trkpt>
      <trkpt lat="42.79996" lon="-0.57108">
        <ele>1680.52</ele>
        <time>2012-07-17T10:21:39Z</time>
      </trkpt>
      <trkpt lat="42.79997" lon="-0.57121">
        <ele>1681.96</ele>
        <time>2012-07-17T10:21:52Z</time>
      </trkpt>
      <trkpt lat="42.79997" lon="-0.57134">
        <ele>1683.89</ele>
        <time>2012-07-17T10:22:06Z</time>
      </trkpt>
      <trkpt lat="42.79995" lon="-0.57145">
        <ele>1685.81</ele>
        <time>2012-07-17T10:22:19Z</time>
      </trkpt>
      <trkpt lat="42.79997" lon="-0.57156">
        <ele>1687.73</ele>
        <time>2012-07-17T10:22:37Z</time>
      </trkpt>
      <trkpt lat="42.79996" lon="-0.57168">
        <ele>1689.65</ele>
        <time>2012-07-17T10:22:55Z</time>
      </trkpt>
      <trkpt lat="42.79997" lon="-0.5718">
        <ele>1690.62</ele>
        <time>2012-07-17T10:23:06Z</time>
      </trkpt>
      <trkpt lat="42.79999" lon="-0.57192">
        <ele>1692.54</ele>
        <time>2012-07-17T10:23:20Z</time>
      </trkpt>
      <trkpt lat="42.80001" lon="-0.57205">
        <ele>1693.98</ele>
        <time>2012-07-17T10:23:33Z</time>
      </trkpt>
      <trkpt lat="42.8" lon="-0.57217">
        <ele>1695.42</ele>
        <time>2012-07-17T10:23:46Z</time>
      </trkpt>
      <trkpt lat="42.8" lon="-0.57228">
        <ele>1696.86</ele>
        <time>2012-07-17T10:24:02Z</time>
      </trkpt>
      <trkpt lat="42.8" lon="-0.5724">
        <ele>1700.23</ele>
        <time>2012-07-17T10:24:23Z</time>
      </trkpt>
      <trkpt lat="42.8" lon="-0.57253">
        <ele>1702.15</ele>
        <time>2012-07-17T10:24:40Z</time>
      </trkpt>
      <trkpt lat="42.80002" lon="-0.57265">
        <ele>1705.04</ele>
        <time>2012-07-17T10:24:57Z</time>
      </trkpt>
      <trkpt lat="42.80005" lon="-0.57276">
        <ele>1706.48</ele>
        <time>2012-07-17T10:25:15Z</time>
      </trkpt>
      <trkpt lat="42.80004" lon="-0.57289">
        <ele>1707.92</ele>
        <time>2012-07-17T10:25:30Z</time>
      </trkpt>
      <trkpt lat="42.80003" lon="-0.57302">
        <ele>1709.84</ele>
        <time>2012-07-17T10:25:43Z</time>
      </trkpt>
      <trkpt lat="42.80001" lon="-0.57316">
        <ele>1709.84</ele>
        <time>2012-07-17T10:25:53Z</time>
      </trkpt>
      <trkpt lat="42.79998" lon="-0.57327">
        <ele>1710.32</ele>
        <time>2012-07-17T10:26:03Z</time>
      </trkpt>
      <trkpt lat="42.79994" lon="-0.57339">
        <ele>1711.28</ele>
        <time>2012-07-17T10:26:13Z</time>
      </trkpt>
      <trkpt lat="42.79992" lon="-0.57351">
        <ele>1711.28</ele>
        <time>2012-07-17T10:26:23Z</time>
      </trkpt>
      <trkpt lat="42.79993" lon="-0.57362">
        <ele>1712.25</ele>
        <time>2012-07-17T10:26:33Z</time>
      </trkpt>
      <trkpt lat="42.79991" lon="-0.5736">
        <ele>1712.25</ele>
        <time>2012-07-17T10:26:58Z</time>
      </trkpt>
      <trkpt lat="42.79993" lon="-0.57358">
        <ele>1712.73</ele>
        <time>2012-07-17T10:27:53Z</time>
      </trkpt>
      <trkpt lat="42.80001" lon="-0.57363">
        <ele>1712.25</ele>
        <time>2012-07-17T10:28:07Z</time>
      </trkpt>
      <trkpt lat="42.80009" lon="-0.5737">
        <ele>1712.73</ele>
        <time>2012-07-17T10:28:18Z</time>
      </trkpt>
      <trkpt lat="42.79995" lon="-0.57363">
        <ele>1712.73</ele>
        <time>2012-07-17T10:30:38Z</time>
      </trkpt>
      <trkpt lat="42.79987" lon="-0.5736">
        <ele>1712.73</ele>
        <time>2012-07-17T10:31:03Z</time>
      </trkpt>
      <trkpt lat="42.8003" lon="-0.57389">
        <ele>1711.76</ele>
        <time>2012-07-17T10:32:46Z</time>
      </trkpt>
      <trkpt lat="42.80011" lon="-0.57374">
        <ele>1712.25</ele>
        <time>2012-07-17T10:33:00Z</time>
      </trkpt>
      <trkpt lat="42.79993" lon="-0.57363">
        <ele>1714.17</ele>
        <time>2012-07-17T10:33:22Z</time>
      </trkpt>
      <trkpt lat="42.79991" lon="-0.57364">
        <ele>1717.05</ele>
        <time>2012-07-17T10:33:56Z</time>
      </trkpt>
      <trkpt lat="42.79991" lon="-0.57378">
        <ele>1713.69</ele>
        <time>2012-07-17T10:34:10Z</time>
      </trkpt>
      <trkpt lat="42.79992" lon="-0.57391">
        <ele>1711.28</ele>
        <time>2012-07-17T10:34:22Z</time>
      </trkpt>
      <trkpt lat="42.79993" lon="-0.57403">
        <ele>1714.65</ele>
        <time>2012-07-17T10:34:33Z</time>
      </trkpt>
      <trkpt lat="42.79995" lon="-0.57416">
        <ele>1715.13</ele>
        <time>2012-07-17T10:34:42Z</time>
      </trkpt>
      <trkpt lat="42.79996" lon="-0.57431">
        <ele>1715.13</ele>
        <time>2012-07-17T10:34:51Z</time>
      </trkpt>
      <trkpt lat="42.79994" lon="-0.57442">
        <ele>1716.09</ele>
        <time>2012-07-17T10:35:02Z</time>
      </trkpt>
      <trkpt lat="42.79996" lon="-0.57453">
        <ele>1716.57</ele>
        <time>2012-07-17T10:35:13Z</time>
      </trkpt>
      <trkpt lat="42.79997" lon="-0.57463">
        <ele>1717.53</ele>
        <time>2012-07-17T10:35:21Z</time>
      </trkpt>
      <trkpt lat="42.79991" lon="-0.5747">
        <ele>1718.01</ele>
        <time>2012-07-17T10:35:33Z</time>
      </trkpt>
      <trkpt lat="42.79987" lon="-0.57482">
        <ele>1719.46</ele>
        <time>2012-07-17T10:35:47Z</time>
      </trkpt>
      <trkpt lat="42.79979" lon="-0.57489">
        <ele>1720.42</ele>
        <time>2012-07-17T10:35:56Z</time>
      </trkpt>
      <trkpt lat="42.79975" lon="-0.57499">
        <ele>1722.34</ele>
        <time>2012-07-17T10:36:11Z</time>
      </trkpt>
      <trkpt lat="42.79969" lon="-0.57506">
        <ele>1722.82</ele>
        <time>2012-07-17T10:36:25Z</time>
      </trkpt>
      <trkpt lat="42.79963" lon="-0.57515">
        <ele>1724.26</ele>
        <time>2012-07-17T10:36:38Z</time>
      </trkpt>
      <trkpt lat="42.79962" lon="-0.57528">
        <ele>1724.74</ele>
        <time>2012-07-17T10:36:51Z</time>
      </trkpt>
      <trkpt lat="42.79963" lon="-0.5754">
        <ele>1725.7</ele>
        <time>2012-07-17T10:37:04Z</time>
      </trkpt>
      <trkpt lat="42.79962" lon="-0.57552">
        <ele>1726.67</ele>
        <time>2012-07-17T10:37:17Z</time>
      </trkpt>
      <trkpt lat="42.7996" lon="-0.57561">
        <ele>1726.18</ele>
        <time>2012-07-17T10:37:36Z</time>
      </trkpt>
      <trkpt lat="42.79958" lon="-0.57573">
        <ele>1727.15</ele>
        <time>2012-07-17T10:37:49Z</time>
      </trkpt>
      <trkpt lat="42.79958" lon="-0.57585">
        <ele>1728.11</ele>
        <time>2012-07-17T10:38:01Z</time>
      </trkpt>
      <trkpt lat="42.79951" lon="-0.57591">
        <ele>1730.03</ele>
        <time>2012-07-17T10:38:18Z</time>
      </trkpt>
      <trkpt lat="42.79942" lon="-0.57595">
        <ele>1731.47</ele>
        <time>2012-07-17T10:38:28Z</time>
      </trkpt>
      <trkpt lat="42.79936" lon="-0.57604">
        <ele>1732.91</ele>
        <time>2012-07-17T10:38:41Z</time>
      </trkpt>
      <trkpt lat="42.79929" lon="-0.57613">
        <ele>1733.88</ele>
        <time>2012-07-17T10:38:52Z</time>
      </trkpt>
      <trkpt lat="42.79926" lon="-0.57622">
        <ele>1734.84</ele>
        <time>2012-07-17T10:39:05Z</time>
      </trkpt>
      <trkpt lat="42.79918" lon="-0.57632">
        <ele>1734.36</ele>
        <time>2012-07-17T10:39:17Z</time>
      </trkpt>
      <trkpt lat="42.7991" lon="-0.5764">
        <ele>1735.32</ele>
        <time>2012-07-17T10:39:27Z</time>
      </trkpt>
      <trkpt lat="42.79903" lon="-0.57648">
        <ele>1736.28</ele>
        <time>2012-07-17T10:39:39Z</time>
      </trkpt>
      <trkpt lat="42.79895" lon="-0.57655">
        <ele>1736.28</ele>
        <time>2012-07-17T10:39:50Z</time>
      </trkpt>
      <trkpt lat="42.79887" lon="-0.57664">
        <ele>1737.24</ele>
        <time>2012-07-17T10:40:00Z</time>
      </trkpt>
      <trkpt lat="42.7988" lon="-0.57672">
        <ele>1737.24</ele>
        <time>2012-07-17T10:40:10Z</time>
      </trkpt>
      <trkpt lat="42.79875" lon="-0.57683">
        <ele>1737.24</ele>
        <time>2012-07-17T10:40:20Z</time>
      </trkpt>
      <trkpt lat="42.79868" lon="-0.57692">
        <ele>1737.24</ele>
        <time>2012-07-17T10:40:32Z</time>
      </trkpt>
      <trkpt lat="42.79863" lon="-0.577">
        <ele>1739.16</ele>
        <time>2012-07-17T10:40:48Z</time>
      </trkpt>
      <trkpt lat="42.79855" lon="-0.57704">
        <ele>1743.49</ele>
        <time>2012-07-17T10:41:17Z</time>
      </trkpt>
      <trkpt lat="42.7985" lon="-0.57705">
        <ele>1744.93</ele>
        <time>2012-07-17T10:41:50Z</time>
      </trkpt>
      <trkpt lat="42.79841" lon="-0.57718">
        <ele>1749.26</ele>
        <time>2012-07-17T10:42:13Z</time>
      </trkpt>
      <trkpt lat="42.79834" lon="-0.57724">
        <ele>1751.18</ele>
        <time>2012-07-17T10:42:26Z</time>
      </trkpt>
      <trkpt lat="42.79825" lon="-0.57725">
        <ele>1753.58</ele>
        <time>2012-07-17T10:42:41Z</time>
      </trkpt>
      <trkpt lat="42.79816" lon="-0.57729">
        <ele>1755.02</ele>
        <time>2012-07-17T10:42:52Z</time>
      </trkpt>
      <trkpt lat="42.79811" lon="-0.57739">
        <ele>1756.95</ele>
        <time>2012-07-17T10:43:04Z</time>
      </trkpt>
      <trkpt lat="42.79807" lon="-0.57744">
        <ele>1757.91</ele>
        <time>2012-07-17T10:43:41Z</time>
      </trkpt>
      <trkpt lat="42.7981" lon="-0.57745">
        <ele>1758.87</ele>
        <time>2012-07-17T10:51:45Z</time>
      </trkpt>
      <trkpt lat="42.79807" lon="-0.57758">
        <ele>1759.83</ele>
        <time>2012-07-17T10:52:05Z</time>
      </trkpt>
      <trkpt lat="42.79806" lon="-0.57773">
        <ele>1760.79</ele>
        <time>2012-07-17T10:52:14Z</time>
      </trkpt>
      <trkpt lat="42.79805" lon="-0.5779">
        <ele>1761.75</ele>
        <time>2012-07-17T10:52:24Z</time>
      </trkpt>
      <trkpt lat="42.79802" lon="-0.57803">
        <ele>1762.23</ele>
        <time>2012-07-17T10:52:32Z</time>
      </trkpt>
      <trkpt lat="42.79801" lon="-0.57817">
        <ele>1762.71</ele>
        <time>2012-07-17T10:52:41Z</time>
      </trkpt>
      <trkpt lat="42.79799" lon="-0.5783">
        <ele>1763.2</ele>
        <time>2012-07-17T10:52:50Z</time>
      </trkpt>
      <trkpt lat="42.79799" lon="-0.57841">
        <ele>1763.68</ele>
        <time>2012-07-17T10:52:59Z</time>
      </trkpt>
      <trkpt lat="42.79799" lon="-0.57852">
        <ele>1764.64</ele>
        <time>2012-07-17T10:53:15Z</time>
      </trkpt>
      <trkpt lat="42.79793" lon="-0.57863">
        <ele>1765.12</ele>
        <time>2012-07-17T10:53:24Z</time>
      </trkpt>
      <trkpt lat="42.7979" lon="-0.57875">
        <ele>1765.6</ele>
        <time>2012-07-17T10:53:35Z</time>
      </trkpt>
      <trkpt lat="42.7979" lon="-0.57885">
        <ele>1766.08</ele>
        <time>2012-07-17T10:54:03Z</time>
      </trkpt>
      <trkpt lat="42.79789" lon="-0.57892">
        <ele>1764.64</ele>
        <time>2012-07-17T10:54:20Z</time>
      </trkpt>
      <trkpt lat="42.79785" lon="-0.57903">
        <ele>1765.6</ele>
        <time>2012-07-17T10:54:29Z</time>
      </trkpt>
      <trkpt lat="42.79787" lon="-0.57915">
        <ele>1766.56</ele>
        <time>2012-07-17T10:54:39Z</time>
      </trkpt>
      <trkpt lat="42.79787" lon="-0.57927">
        <ele>1768</ele>
        <time>2012-07-17T10:54:48Z</time>
      </trkpt>
      <trkpt lat="42.79783" lon="-0.57939">
        <ele>1768.96</ele>
        <time>2012-07-17T10:54:58Z</time>
      </trkpt>
      <trkpt lat="42.79774" lon="-0.57944">
        <ele>1769.44</ele>
        <time>2012-07-17T10:55:08Z</time>
      </trkpt>
      <trkpt lat="42.7977" lon="-0.57956">
        <ele>1770.41</ele>
        <time>2012-07-17T10:55:19Z</time>
      </trkpt>
      <trkpt lat="42.79765" lon="-0.57968">
        <ele>1771.37</ele>
        <time>2012-07-17T10:55:30Z</time>
      </trkpt>
      <trkpt lat="42.79764" lon="-0.57981">
        <ele>1772.81</ele>
        <time>2012-07-17T10:55:41Z</time>
      </trkpt>
      <trkpt lat="42.79762" lon="-0.57993">
        <ele>1772.81</ele>
        <time>2012-07-17T10:55:51Z</time>
      </trkpt>
      <trkpt lat="42.79755" lon="-0.58004">
        <ele>1773.77</ele>
        <time>2012-07-17T10:56:02Z</time>
      </trkpt>
      <trkpt lat="42.7975" lon="-0.58014">
        <ele>1773.77</ele>
        <time>2012-07-17T10:56:13Z</time>
      </trkpt>
      <trkpt lat="42.79745" lon="-0.58025">
        <ele>1774.73</ele>
        <time>2012-07-17T10:56:25Z</time>
      </trkpt>
      <trkpt lat="42.7974" lon="-0.58036">
        <ele>1775.21</ele>
        <time>2012-07-17T10:56:35Z</time>
      </trkpt>
      <trkpt lat="42.79734" lon="-0.58049">
        <ele>1776.17</ele>
        <time>2012-07-17T10:56:46Z</time>
      </trkpt>
      <trkpt lat="42.7973" lon="-0.58062">
        <ele>1776.65</ele>
        <time>2012-07-17T10:56:56Z</time>
      </trkpt>
      <trkpt lat="42.79725" lon="-0.58075">
        <ele>1777.13</ele>
        <time>2012-07-17T10:57:06Z</time>
      </trkpt>
      <trkpt lat="42.79721" lon="-0.58086">
        <ele>1778.1</ele>
        <time>2012-07-17T10:57:18Z</time>
      </trkpt>
      <trkpt lat="42.79717" lon="-0.581">
        <ele>1778.58</ele>
        <time>2012-07-17T10:57:58Z</time>
      </trkpt>
      <trkpt lat="42.79715" lon="-0.58109">
        <ele>1779.06</ele>
        <time>2012-07-17T10:58:07Z</time>
      </trkpt>
      <trkpt lat="42.79713" lon="-0.58126">
        <ele>1779.54</ele>
        <time>2012-07-17T10:58:17Z</time>
      </trkpt>
      <trkpt lat="42.79709" lon="-0.58138">
        <ele>1780.98</ele>
        <time>2012-07-17T10:58:26Z</time>
      </trkpt>
      <trkpt lat="42.79706" lon="-0.58151">
        <ele>1781.46</ele>
        <time>2012-07-17T10:58:37Z</time>
      </trkpt>
      <trkpt lat="42.79704" lon="-0.58169">
        <ele>1781.46</ele>
        <time>2012-07-17T10:58:48Z</time>
      </trkpt>
      <trkpt lat="42.79704" lon="-0.58182">
        <ele>1780.98</ele>
        <time>2012-07-17T10:58:57Z</time>
      </trkpt>
      <trkpt lat="42.79702" lon="-0.58196">
        <ele>1781.46</ele>
        <time>2012-07-17T10:59:07Z</time>
      </trkpt>
      <trkpt lat="42.797" lon="-0.58209">
        <ele>1780.98</ele>
        <time>2012-07-17T10:59:15Z</time>
      </trkpt>
      <trkpt lat="42.79698" lon="-0.58223">
        <ele>1781.46</ele>
        <time>2012-07-17T10:59:23Z</time>
      </trkpt>
      <trkpt lat="42.79695" lon="-0.58235">
        <ele>1780.98</ele>
        <time>2012-07-17T10:59:30Z</time>
      </trkpt>
      <trkpt lat="42.79692" lon="-0.58248">
        <ele>1780.5</ele>
        <time>2012-07-17T10:59:39Z</time>
      </trkpt>
      <trkpt lat="42.79689" lon="-0.58262">
        <ele>1780.98</ele>
        <time>2012-07-17T10:59:48Z</time>
      </trkpt>
      <trkpt lat="42.79685" lon="-0.58278">
        <ele>1780.98</ele>
        <time>2012-07-17T10:59:57Z</time>
      </trkpt>
      <trkpt lat="42.79683" lon="-0.58289">
        <ele>1780.98</ele>
        <time>2012-07-17T11:00:07Z</time>
      </trkpt>
      <trkpt lat="42.79678" lon="-0.58302">
        <ele>1780.98</ele>
        <time>2012-07-17T11:00:17Z</time>
      </trkpt>
      <trkpt lat="42.79677" lon="-0.58319">
        <ele>1781.46</ele>
        <time>2012-07-17T11:00:27Z</time>
      </trkpt>
      <trkpt lat="42.79678" lon="-0.5833">
        <ele>1781.46</ele>
        <time>2012-07-17T11:00:35Z</time>
      </trkpt>
      <trkpt lat="42.79679" lon="-0.58341">
        <ele>1781.46</ele>
        <time>2012-07-17T11:00:44Z</time>
      </trkpt>
      <trkpt lat="42.79683" lon="-0.58352">
        <ele>1781.46</ele>
        <time>2012-07-17T11:00:52Z</time>
      </trkpt>
      <trkpt lat="42.79686" lon="-0.58366">
        <ele>1780.98</ele>
        <time>2012-07-17T11:01:00Z</time>
      </trkpt>
      <trkpt lat="42.79689" lon="-0.58385">
        <ele>1780.98</ele>
        <time>2012-07-17T11:01:10Z</time>
      </trkpt>
      <trkpt lat="42.79689" lon="-0.584">
        <ele>1780.5</ele>
        <time>2012-07-17T11:01:20Z</time>
      </trkpt>
      <trkpt lat="42.79696" lon="-0.584">
        <ele>1780.98</ele>
        <time>2012-07-17T11:01:54Z</time>
      </trkpt>
      <trkpt lat="42.79704" lon="-0.58411">
        <ele>1778.1</ele>
        <time>2012-07-17T11:02:05Z</time>
      </trkpt>
      <trkpt lat="42.79704" lon="-0.58423">
        <ele>1775.21</ele>
        <time>2012-07-17T11:02:13Z</time>
      </trkpt>
      <trkpt lat="42.79709" lon="-0.58435">
        <ele>1774.25</ele>
        <time>2012-07-17T11:02:21Z</time>
      </trkpt>
      <trkpt lat="42.79721" lon="-0.58439">
        <ele>1772.81</ele>
        <time>2012-07-17T11:02:31Z</time>
      </trkpt>
      <trkpt lat="42.79731" lon="-0.58442">
        <ele>1772.33</ele>
        <time>2012-07-17T11:02:41Z</time>
      </trkpt>
      <trkpt lat="42.79742" lon="-0.58446">
        <ele>1771.85</ele>
        <time>2012-07-17T11:02:51Z</time>
      </trkpt>
      <trkpt lat="42.7975" lon="-0.58456">
        <ele>1771.37</ele>
        <time>2012-07-17T11:03:00Z</time>
      </trkpt>
      <trkpt lat="42.79763" lon="-0.58461">
        <ele>1770.89</ele>
        <time>2012-07-17T11:03:09Z</time>
      </trkpt>
      <trkpt lat="42.79773" lon="-0.58468">
        <ele>1770.89</ele>
        <time>2012-07-17T11:03:18Z</time>
      </trkpt>
      <trkpt lat="42.79782" lon="-0.58473">
        <ele>1771.37</ele>
        <time>2012-07-17T11:03:28Z</time>
      </trkpt>
      <trkpt lat="42.79782" lon="-0.58473">
        <ele>1771.37</ele>
        <time>2012-07-17T11:04:59Z</time>
      </trkpt>
      <trkpt lat="42.79788" lon="-0.5848">
        <ele>1769.92</ele>
        <time>2012-07-17T11:05:10Z</time>
      </trkpt>
      <trkpt lat="42.79794" lon="-0.58492">
        <ele>1767.52</ele>
        <time>2012-07-17T11:05:20Z</time>
      </trkpt>
      <trkpt lat="42.79801" lon="-0.58498">
        <ele>1766.08</ele>
        <time>2012-07-17T11:05:30Z</time>
      </trkpt>
      <trkpt lat="42.7981" lon="-0.58506">
        <ele>1764.64</ele>
        <time>2012-07-17T11:05:40Z</time>
      </trkpt>
      <trkpt lat="42.79817" lon="-0.58515">
        <ele>1763.68</ele>
        <time>2012-07-17T11:05:51Z</time>
      </trkpt>
      <trkpt lat="42.79826" lon="-0.58521">
        <ele>1763.2</ele>
        <time>2012-07-17T11:06:00Z</time>
      </trkpt>
      <trkpt lat="42.79834" lon="-0.58531">
        <ele>1763.2</ele>
        <time>2012-07-17T11:06:10Z</time>
      </trkpt>
      <trkpt lat="42.79839" lon="-0.58544">
        <ele>1762.23</ele>
        <time>2012-07-17T11:06:19Z</time>
      </trkpt>
      <trkpt lat="42.79845" lon="-0.58554">
        <ele>1761.27</ele>
        <time>2012-07-17T11:06:28Z</time>
      </trkpt>
      <trkpt lat="42.7985" lon="-0.58566">
        <ele>1759.83</ele>
        <time>2012-07-17T11:06:38Z</time>
      </trkpt>
      <trkpt lat="42.79856" lon="-0.58578">
        <ele>1759.83</ele>
        <time>2012-07-17T11:06:48Z</time>
      </trkpt>
      <trkpt lat="42.79862" lon="-0.58589">
        <ele>1758.87</ele>
        <time>2012-07-17T11:07:00Z</time>
      </trkpt>
      <trkpt lat="42.79869" lon="-0.58597">
        <ele>1758.39</ele>
        <time>2012-07-17T11:07:11Z</time>
      </trkpt>
      <trkpt lat="42.79878" lon="-0.58612">
        <ele>1757.91</ele>
        <time>2012-07-17T11:07:19Z</time>
      </trkpt>
      <trkpt lat="42.79883" lon="-0.58624">
        <ele>1756.47</ele>
        <time>2012-07-17T11:07:27Z</time>
      </trkpt>
      <trkpt lat="42.79892" lon="-0.58634">
        <ele>1755.5</ele>
        <time>2012-07-17T11:07:37Z</time>
      </trkpt>
      <trkpt lat="42.79901" lon="-0.58639">
        <ele>1755.02</ele>
        <time>2012-07-17T11:07:45Z</time>
      </trkpt>
      <trkpt lat="42.79908" lon="-0.58642">
        <ele>1755.02</ele>
        <time>2012-07-17T11:07:52Z</time>
      </trkpt>
      <trkpt lat="42.79917" lon="-0.58642">
        <ele>1754.06</ele>
        <time>2012-07-17T11:08:02Z</time>
      </trkpt>
      <trkpt lat="42.79925" lon="-0.58632">
        <ele>1753.1</ele>
        <time>2012-07-17T11:08:12Z</time>
      </trkpt>
      <trkpt lat="42.79933" lon="-0.5863">
        <ele>1752.62</ele>
        <time>2012-07-17T11:08:20Z</time>
      </trkpt>
      <trkpt lat="42.79938" lon="-0.58644">
        <ele>1752.62</ele>
        <time>2012-07-17T11:08:28Z</time>
      </trkpt>
      <trkpt lat="42.79943" lon="-0.58657">
        <ele>1753.1</ele>
        <time>2012-07-17T11:08:36Z</time>
      </trkpt>
      <trkpt lat="42.79951" lon="-0.58663">
        <ele>1753.1</ele>
        <time>2012-07-17T11:08:49Z</time>
      </trkpt>
      <trkpt lat="42.79959" lon="-0.58672">
        <ele>1752.14</ele>
        <time>2012-07-17T11:08:58Z</time>
      </trkpt>
      <trkpt lat="42.79966" lon="-0.58681">
        <ele>1751.18</ele>
        <time>2012-07-17T11:09:08Z</time>
      </trkpt>
      <trkpt lat="42.79975" lon="-0.58691">
        <ele>1751.18</ele>
        <time>2012-07-17T11:09:16Z</time>
      </trkpt>
      <trkpt lat="42.79982" lon="-0.58693">
        <ele>1751.18</ele>
        <time>2012-07-17T11:09:26Z</time>
      </trkpt>
      <trkpt lat="42.79991" lon="-0.58699">
        <ele>1749.74</ele>
        <time>2012-07-17T11:09:39Z</time>
      </trkpt>
      <trkpt lat="42.79996" lon="-0.58706">
        <ele>1748.78</ele>
        <time>2012-07-17T11:10:15Z</time>
      </trkpt>
      <trkpt lat="42.80003" lon="-0.58713">
        <ele>1747.81</ele>
        <time>2012-07-17T11:10:24Z</time>
      </trkpt>
      <trkpt lat="42.80009" lon="-0.58725">
        <ele>1747.33</ele>
        <time>2012-07-17T11:10:34Z</time>
      </trkpt>
      <trkpt lat="42.80013" lon="-0.58736">
        <ele>1745.89</ele>
        <time>2012-07-17T11:10:46Z</time>
      </trkpt>
      <trkpt lat="42.80016" lon="-0.58747">
        <ele>1745.89</ele>
        <time>2012-07-17T11:11:02Z</time>
      </trkpt>
      <trkpt lat="42.80011" lon="-0.58755">
        <ele>1748.29</ele>
        <time>2012-07-17T11:27:39Z</time>
      </trkpt>
      <trkpt lat="42.80015" lon="-0.58755">
        <ele>1749.26</ele>
        <time>2012-07-17T11:34:12Z</time>
      </trkpt>
      <trkpt lat="42.80017" lon="-0.58759">
        <ele>1748.78</ele>
        <time>2012-07-17T11:35:08Z</time>
      </trkpt>
      <trkpt lat="42.80017" lon="-0.58758">
        <ele>1749.26</ele>
        <time>2012-07-17T11:36:42Z</time>
      </trkpt>
      <trkpt lat="42.80018" lon="-0.58757">
        <ele>1749.26</ele>
        <time>2012-07-17T11:44:57Z</time>
      </trkpt>
      <trkpt lat="42.8002" lon="-0.58763">
        <ele>1749.26</ele>
        <time>2012-07-17T11:45:23Z</time>
      </trkpt>
      <trkpt lat="42.80014" lon="-0.58761">
        <ele>1750.22</ele>
        <time>2012-07-17T11:46:43Z</time>
      </trkpt>
      <trkpt lat="42.80018" lon="-0.58757">
        <ele>1750.22</ele>
        <time>2012-07-17T11:58:40Z</time>
      </trkpt>
      <trkpt lat="42.80022" lon="-0.58752">
        <ele>1749.74</ele>
        <time>2012-07-17T12:05:26Z</time>
      </trkpt>
      <trkpt lat="42.8002" lon="-0.58736">
        <ele>1750.22</ele>
        <time>2012-07-17T12:05:37Z</time>
      </trkpt>
      <trkpt lat="42.80022" lon="-0.58721">
        <ele>1750.7</ele>
        <time>2012-07-17T12:05:45Z</time>
      </trkpt>
      <trkpt lat="42.80026" lon="-0.58709">
        <ele>1751.18</ele>
        <time>2012-07-17T12:05:52Z</time>
      </trkpt>
      <trkpt lat="42.80031" lon="-0.58698">
        <ele>1751.66</ele>
        <time>2012-07-17T12:06:00Z</time>
      </trkpt>
      <trkpt lat="42.80036" lon="-0.58686">
        <ele>1752.62</ele>
        <time>2012-07-17T12:06:08Z</time>
      </trkpt>
      <trkpt lat="42.80037" lon="-0.58673">
        <ele>1753.1</ele>
        <time>2012-07-17T12:06:20Z</time>
      </trkpt>
      <trkpt lat="42.80047" lon="-0.58667">
        <ele>1753.1</ele>
        <time>2012-07-17T12:06:33Z</time>
      </trkpt>
      <trkpt lat="42.80058" lon="-0.58663">
        <ele>1753.58</ele>
        <time>2012-07-17T12:06:40Z</time>
      </trkpt>
      <trkpt lat="42.80068" lon="-0.5866">
        <ele>1753.1</ele>
        <time>2012-07-17T12:06:47Z</time>
      </trkpt>
      <trkpt lat="42.80075" lon="-0.58652">
        <ele>1753.1</ele>
        <time>2012-07-17T12:06:54Z</time>
      </trkpt>
      <trkpt lat="42.8008" lon="-0.58645">
        <ele>1752.14</ele>
        <time>2012-07-17T12:07:03Z</time>
      </trkpt>
      <trkpt lat="42.80087" lon="-0.58642">
        <ele>1754.06</ele>
        <time>2012-07-17T12:07:14Z</time>
      </trkpt>
      <trkpt lat="42.80094" lon="-0.58632">
        <ele>1754.54</ele>
        <time>2012-07-17T12:07:24Z</time>
      </trkpt>
      <trkpt lat="42.80102" lon="-0.58624">
        <ele>1753.58</ele>
        <time>2012-07-17T12:07:35Z</time>
      </trkpt>
      <trkpt lat="42.80105" lon="-0.58613">
        <ele>1750.7</ele>
        <time>2012-07-17T12:07:46Z</time>
      </trkpt>
      <trkpt lat="42.80107" lon="-0.58601">
        <ele>1751.18</ele>
        <time>2012-07-17T12:07:56Z</time>
      </trkpt>
      <trkpt lat="42.80112" lon="-0.58608">
        <ele>1752.62</ele>
        <time>2012-07-17T12:08:07Z</time>
      </trkpt>
      <trkpt lat="42.80119" lon="-0.58614">
        <ele>1752.62</ele>
        <time>2012-07-17T12:08:26Z</time>
      </trkpt>
      <trkpt lat="42.80127" lon="-0.58626">
        <ele>1753.1</ele>
        <time>2012-07-17T12:08:37Z</time>
      </trkpt>
      <trkpt lat="42.80133" lon="-0.58636">
        <ele>1754.54</ele>
        <time>2012-07-17T12:08:45Z</time>
      </trkpt>
      <trkpt lat="42.8014" lon="-0.58647">
        <ele>1753.58</ele>
        <time>2012-07-17T12:08:53Z</time>
      </trkpt>
      <trkpt lat="42.80147" lon="-0.58655">
        <ele>1753.58</ele>
        <time>2012-07-17T12:09:01Z</time>
      </trkpt>
      <trkpt lat="42.80154" lon="-0.58659">
        <ele>1753.1</ele>
        <time>2012-07-17T12:09:08Z</time>
      </trkpt>
      <trkpt lat="42.80162" lon="-0.58665">
        <ele>1752.62</ele>
        <time>2012-07-17T12:09:17Z</time>
      </trkpt>
      <trkpt lat="42.80169" lon="-0.58673">
        <ele>1752.14</ele>
        <time>2012-07-17T12:09:25Z</time>
      </trkpt>
      <trkpt lat="42.80174" lon="-0.58683">
        <ele>1752.62</ele>
        <time>2012-07-17T12:09:32Z</time>
      </trkpt>
      <trkpt lat="42.80181" lon="-0.58689">
        <ele>1751.66</ele>
        <time>2012-07-17T12:09:40Z</time>
      </trkpt>
      <trkpt lat="42.80189" lon="-0.58692">
        <ele>1751.18</ele>
        <time>2012-07-17T12:09:51Z</time>
      </trkpt>
      <trkpt lat="42.80197" lon="-0.58699">
        <ele>1750.7</ele>
        <time>2012-07-17T12:10:04Z</time>
      </trkpt>
      <trkpt lat="42.80203" lon="-0.58708">
        <ele>1751.18</ele>
        <time>2012-07-17T12:10:12Z</time>
      </trkpt>
      <trkpt lat="42.8021" lon="-0.58718">
        <ele>1751.18</ele>
        <time>2012-07-17T12:10:24Z</time>
      </trkpt>
      <trkpt lat="42.80217" lon="-0.58728">
        <ele>1750.7</ele>
        <time>2012-07-17T12:10:33Z</time>
      </trkpt>
      <trkpt lat="42.80223" lon="-0.58736">
        <ele>1751.18</ele>
        <time>2012-07-17T12:10:43Z</time>
      </trkpt>
      <trkpt lat="42.80226" lon="-0.5875">
        <ele>1750.7</ele>
        <time>2012-07-17T12:10:52Z</time>
      </trkpt>
      <trkpt lat="42.80226" lon="-0.58764">
        <ele>1750.22</ele>
        <time>2012-07-17T12:11:03Z</time>
      </trkpt>
      <trkpt lat="42.80233" lon="-0.58772">
        <ele>1750.7</ele>
        <time>2012-07-17T12:11:15Z</time>
      </trkpt>
      <trkpt lat="42.80238" lon="-0.58782">
        <ele>1749.74</ele>
        <time>2012-07-17T12:11:26Z</time>
      </trkpt>
      <trkpt lat="42.80246" lon="-0.58791">
        <ele>1749.26</ele>
        <time>2012-07-17T12:11:35Z</time>
      </trkpt>
      <trkpt lat="42.80255" lon="-0.58799">
        <ele>1749.74</ele>
        <time>2012-07-17T12:11:44Z</time>
      </trkpt>
      <trkpt lat="42.80263" lon="-0.58807">
        <ele>1749.26</ele>
        <time>2012-07-17T12:11:53Z</time>
      </trkpt>
      <trkpt lat="42.80272" lon="-0.58818">
        <ele>1749.74</ele>
        <time>2012-07-17T12:12:03Z</time>
      </trkpt>
      <trkpt lat="42.80281" lon="-0.58825">
        <ele>1749.26</ele>
        <time>2012-07-17T12:12:13Z</time>
      </trkpt>
      <trkpt lat="42.80286" lon="-0.58838">
        <ele>1748.29</ele>
        <time>2012-07-17T12:12:23Z</time>
      </trkpt>
      <trkpt lat="42.80288" lon="-0.58851">
        <ele>1746.85</ele>
        <time>2012-07-17T12:12:34Z</time>
      </trkpt>
      <trkpt lat="42.80288" lon="-0.58859">
        <ele>1745.89</ele>
        <time>2012-07-17T12:13:24Z</time>
      </trkpt>
      <trkpt lat="42.80291" lon="-0.58868">
        <ele>1746.37</ele>
        <time>2012-07-17T12:13:42Z</time>
      </trkpt>
      <trkpt lat="42.80296" lon="-0.58869">
        <ele>1747.33</ele>
        <time>2012-07-17T12:14:16Z</time>
      </trkpt>
      <trkpt lat="42.803" lon="-0.58881">
        <ele>1749.74</ele>
        <time>2012-07-17T12:15:02Z</time>
      </trkpt>
      <trkpt lat="42.80302" lon="-0.58893">
        <ele>1750.22</ele>
        <time>2012-07-17T12:15:15Z</time>
      </trkpt>
      <trkpt lat="42.80301" lon="-0.5891">
        <ele>1749.26</ele>
        <time>2012-07-17T12:15:25Z</time>
      </trkpt>
      <trkpt lat="42.80299" lon="-0.58925">
        <ele>1749.74</ele>
        <time>2012-07-17T12:15:33Z</time>
      </trkpt>
      <trkpt lat="42.80298" lon="-0.58939">
        <ele>1750.7</ele>
        <time>2012-07-17T12:15:42Z</time>
      </trkpt>
      <trkpt lat="42.80292" lon="-0.5895">
        <ele>1750.22</ele>
        <time>2012-07-17T12:15:51Z</time>
      </trkpt>
      <trkpt lat="42.80294" lon="-0.58966">
        <ele>1751.66</ele>
        <time>2012-07-17T12:16:01Z</time>
      </trkpt>
      <trkpt lat="42.80295" lon="-0.58977">
        <ele>1753.58</ele>
        <time>2012-07-17T12:16:13Z</time>
      </trkpt>
      <trkpt lat="42.80291" lon="-0.58989">
        <ele>1755.99</ele>
        <time>2012-07-17T12:16:25Z</time>
      </trkpt>
      <trkpt lat="42.80285" lon="-0.58996">
        <ele>1758.87</ele>
        <time>2012-07-17T12:16:40Z</time>
      </trkpt>
      <trkpt lat="42.80291" lon="-0.59003">
        <ele>1759.35</ele>
        <time>2012-07-17T12:16:52Z</time>
      </trkpt>
      <trkpt lat="42.80293" lon="-0.59013">
        <ele>1762.71</ele>
        <time>2012-07-17T12:17:19Z</time>
      </trkpt>
      <trkpt lat="42.80302" lon="-0.59012">
        <ele>1764.64</ele>
        <time>2012-07-17T12:17:31Z</time>
      </trkpt>
      <trkpt lat="42.80311" lon="-0.59008">
        <ele>1765.6</ele>
        <time>2012-07-17T12:17:55Z</time>
      </trkpt>
      <trkpt lat="42.80314" lon="-0.59002">
        <ele>1765.12</ele>
        <time>2012-07-17T12:18:17Z</time>
      </trkpt>
      <trkpt lat="42.80316" lon="-0.58996">
        <ele>1765.6</ele>
        <time>2012-07-17T12:18:50Z</time>
      </trkpt>
      <trkpt lat="42.80321" lon="-0.58985">
        <ele>1765.6</ele>
        <time>2012-07-17T12:20:41Z</time>
      </trkpt>
      <trkpt lat="42.80326" lon="-0.58978">
        <ele>1766.08</ele>
        <time>2012-07-17T12:21:24Z</time>
      </trkpt>
      <trkpt lat="42.80331" lon="-0.58974">
        <ele>1766.56</ele>
        <time>2012-07-17T12:21:44Z</time>
      </trkpt>
      <trkpt lat="42.80326" lon="-0.58966">
        <ele>1765.6</ele>
        <time>2012-07-17T12:21:56Z</time>
      </trkpt>
      <trkpt lat="42.80337" lon="-0.58969">
        <ele>1766.56</ele>
        <time>2012-07-17T12:23:07Z</time>
      </trkpt>
      <trkpt lat="42.80342" lon="-0.58947">
        <ele>1769.44</ele>
        <time>2012-07-17T12:23:17Z</time>
      </trkpt>
      <trkpt lat="42.80343" lon="-0.58933">
        <ele>1770.41</ele>
        <time>2012-07-17T12:23:27Z</time>
      </trkpt>
      <trkpt lat="42.80347" lon="-0.58921">
        <ele>1771.85</ele>
        <time>2012-07-17T12:23:39Z</time>
      </trkpt>
      <trkpt lat="42.80351" lon="-0.58908">
        <ele>1773.29</ele>
        <time>2012-07-17T12:23:50Z</time>
      </trkpt>
      <trkpt lat="42.80358" lon="-0.58902">
        <ele>1773.77</ele>
        <time>2012-07-17T12:24:01Z</time>
      </trkpt>
      <trkpt lat="42.80362" lon="-0.58893">
        <ele>1774.73</ele>
        <time>2012-07-17T12:24:17Z</time>
      </trkpt>
      <trkpt lat="42.80364" lon="-0.58881">
        <ele>1773.29</ele>
        <time>2012-07-17T12:24:30Z</time>
      </trkpt>
      <trkpt lat="42.80367" lon="-0.58867">
        <ele>1773.77</ele>
        <time>2012-07-17T12:24:39Z</time>
      </trkpt>
      <trkpt lat="42.8037" lon="-0.58853">
        <ele>1774.25</ele>
        <time>2012-07-17T12:24:47Z</time>
      </trkpt>
      <trkpt lat="42.80373" lon="-0.58841">
        <ele>1774.73</ele>
        <time>2012-07-17T12:24:55Z</time>
      </trkpt>
      <trkpt lat="42.80365" lon="-0.58835">
        <ele>1775.21</ele>
        <time>2012-07-17T12:25:04Z</time>
      </trkpt>
      <trkpt lat="42.80358" lon="-0.58827">
        <ele>1775.21</ele>
        <time>2012-07-17T12:25:14Z</time>
      </trkpt>
      <trkpt lat="42.8035" lon="-0.58827">
        <ele>1773.77</ele>
        <time>2012-07-17T12:25:22Z</time>
      </trkpt>
      <trkpt lat="42.80345" lon="-0.58814">
        <ele>1774.73</ele>
        <time>2012-07-17T12:25:34Z</time>
      </trkpt>
      <trkpt lat="42.80339" lon="-0.58805">
        <ele>1776.17</ele>
        <time>2012-07-17T12:25:44Z</time>
      </trkpt>
      <trkpt lat="42.80334" lon="-0.58798">
        <ele>1778.1</ele>
        <time>2012-07-17T12:25:58Z</time>
      </trkpt>
      <trkpt lat="42.80339" lon="-0.58788">
        <ele>1781.94</ele>
        <time>2012-07-17T12:26:27Z</time>
      </trkpt>
      <trkpt lat="42.80339" lon="-0.58776">
        <ele>1782.9</ele>
        <time>2012-07-17T12:26:38Z</time>
      </trkpt>
      <trkpt lat="42.80342" lon="-0.58764">
        <ele>1783.86</ele>
        <time>2012-07-17T12:26:48Z</time>
      </trkpt>
      <trkpt lat="42.80332" lon="-0.5876">
        <ele>1783.38</ele>
        <time>2012-07-17T12:27:06Z</time>
      </trkpt>
      <trkpt lat="42.8033" lon="-0.58759">
        <ele>1784.34</ele>
        <time>2012-07-17T12:29:23Z</time>
      </trkpt>
      <trkpt lat="42.80328" lon="-0.58749">
        <ele>1783.38</ele>
        <time>2012-07-17T12:31:09Z</time>
      </trkpt>
      <trkpt lat="42.80325" lon="-0.58735">
        <ele>1781.94</ele>
        <time>2012-07-17T12:31:28Z</time>
      </trkpt>
      <trkpt lat="42.80326" lon="-0.58723">
        <ele>1781.94</ele>
        <time>2012-07-17T12:31:34Z</time>
      </trkpt>
      <trkpt lat="42.80323" lon="-0.58708">
        <ele>1781.46</ele>
        <time>2012-07-17T12:31:42Z</time>
      </trkpt>
      <trkpt lat="42.80321" lon="-0.58693">
        <ele>1780.5</ele>
        <time>2012-07-17T12:31:54Z</time>
      </trkpt>
      <trkpt lat="42.80321" lon="-0.58677">
        <ele>1780.02</ele>
        <time>2012-07-17T12:32:05Z</time>
      </trkpt>
      <trkpt lat="42.8032" lon="-0.58663">
        <ele>1778.58</ele>
        <time>2012-07-17T12:32:15Z</time>
      </trkpt>
      <trkpt lat="42.80315" lon="-0.58652">
        <ele>1779.54</ele>
        <time>2012-07-17T12:32:25Z</time>
      </trkpt>
      <trkpt lat="42.80315" lon="-0.58638">
        <ele>1780.5</ele>
        <time>2012-07-17T12:32:35Z</time>
      </trkpt>
      <trkpt lat="42.80318" lon="-0.58624">
        <ele>1780.02</ele>
        <time>2012-07-17T12:32:43Z</time>
      </trkpt>
      <trkpt lat="42.80321" lon="-0.58612">
        <ele>1779.54</ele>
        <time>2012-07-17T12:32:51Z</time>
      </trkpt>
      <trkpt lat="42.80321" lon="-0.58601">
        <ele>1779.06</ele>
        <time>2012-07-17T12:33:01Z</time>
      </trkpt>
      <trkpt lat="42.80321" lon="-0.58589">
        <ele>1779.54</ele>
        <time>2012-07-17T12:33:11Z</time>
      </trkpt>
      <trkpt lat="42.80326" lon="-0.58578">
        <ele>1779.54</ele>
        <time>2012-07-17T12:33:20Z</time>
      </trkpt>
      <trkpt lat="42.80322" lon="-0.58569">
        <ele>1779.54</ele>
        <time>2012-07-17T12:33:28Z</time>
      </trkpt>
      <trkpt lat="42.80315" lon="-0.5857">
        <ele>1779.54</ele>
        <time>2012-07-17T12:34:20Z</time>
      </trkpt>
      <trkpt lat="42.80323" lon="-0.5856">
        <ele>1779.54</ele>
        <time>2012-07-17T12:34:38Z</time>
      </trkpt>
      <trkpt lat="42.80328" lon="-0.58548">
        <ele>1779.54</ele>
        <time>2012-07-17T12:34:48Z</time>
      </trkpt>
      <trkpt lat="42.80333" lon="-0.58535">
        <ele>1779.54</ele>
        <time>2012-07-17T12:35:00Z</time>
      </trkpt>
      <trkpt lat="42.80334" lon="-0.58521">
        <ele>1778.58</ele>
        <time>2012-07-17T12:35:09Z</time>
      </trkpt>
      <trkpt lat="42.80332" lon="-0.5851">
        <ele>1778.1</ele>
        <time>2012-07-17T12:35:19Z</time>
      </trkpt>
      <trkpt lat="42.80328" lon="-0.58498">
        <ele>1776.17</ele>
        <time>2012-07-17T12:35:29Z</time>
      </trkpt>
      <trkpt lat="42.80324" lon="-0.58487">
        <ele>1775.69</ele>
        <time>2012-07-17T12:35:39Z</time>
      </trkpt>
      <trkpt lat="42.80321" lon="-0.58475">
        <ele>1776.17</ele>
        <time>2012-07-17T12:35:49Z</time>
      </trkpt>
      <trkpt lat="42.80317" lon="-0.5846">
        <ele>1775.21</ele>
        <time>2012-07-17T12:35:59Z</time>
      </trkpt>
      <trkpt lat="42.80316" lon="-0.58447">
        <ele>1774.25</ele>
        <time>2012-07-17T12:36:08Z</time>
      </trkpt>
      <trkpt lat="42.80313" lon="-0.58434">
        <ele>1773.29</ele>
        <time>2012-07-17T12:36:17Z</time>
      </trkpt>
      <trkpt lat="42.80309" lon="-0.58423">
        <ele>1773.29</ele>
        <time>2012-07-17T12:36:26Z</time>
      </trkpt>
      <trkpt lat="42.80307" lon="-0.58411">
        <ele>1772.81</ele>
        <time>2012-07-17T12:36:35Z</time>
      </trkpt>
      <trkpt lat="42.80304" lon="-0.58399">
        <ele>1772.81</ele>
        <time>2012-07-17T12:36:46Z</time>
      </trkpt>
      <trkpt lat="42.80302" lon="-0.58386">
        <ele>1771.85</ele>
        <time>2012-07-17T12:36:56Z</time>
      </trkpt>
      <trkpt lat="42.80298" lon="-0.58376">
        <ele>1772.33</ele>
        <time>2012-07-17T12:37:09Z</time>
      </trkpt>
      <trkpt lat="42.80292" lon="-0.58366">
        <ele>1771.85</ele>
        <time>2012-07-17T12:37:22Z</time>
      </trkpt>
      <trkpt lat="42.80286" lon="-0.58357">
        <ele>1772.33</ele>
        <time>2012-07-17T12:37:32Z</time>
      </trkpt>
      <trkpt lat="42.80277" lon="-0.58354">
        <ele>1770.41</ele>
        <time>2012-07-17T12:37:42Z</time>
      </trkpt>
      <trkpt lat="42.80275" lon="-0.58345">
        <ele>1769.44</ele>
        <time>2012-07-17T12:37:51Z</time>
      </trkpt>
      <trkpt lat="42.80272" lon="-0.58331">
        <ele>1769.92</ele>
        <time>2012-07-17T12:38:00Z</time>
      </trkpt>
      <trkpt lat="42.80273" lon="-0.58319">
        <ele>1770.41</ele>
        <time>2012-07-17T12:38:11Z</time>
      </trkpt>
      <trkpt lat="42.80273" lon="-0.58307">
        <ele>1769.92</ele>
        <time>2012-07-17T12:38:32Z</time>
      </trkpt>
      <trkpt lat="42.80272" lon="-0.58294">
        <ele>1768.48</ele>
        <time>2012-07-17T12:38:49Z</time>
      </trkpt>
      <trkpt lat="42.80271" lon="-0.58279">
        <ele>1768.96</ele>
        <time>2012-07-17T12:38:59Z</time>
      </trkpt>
      <trkpt lat="42.80269" lon="-0.58267">
        <ele>1768.96</ele>
        <time>2012-07-17T12:39:07Z</time>
      </trkpt>
      <trkpt lat="42.80267" lon="-0.58251">
        <ele>1768.96</ele>
        <time>2012-07-17T12:39:17Z</time>
      </trkpt>
      <trkpt lat="42.80263" lon="-0.5824">
        <ele>1767.04</ele>
        <time>2012-07-17T12:39:26Z</time>
      </trkpt>
      <trkpt lat="42.80254" lon="-0.58237">
        <ele>1765.6</ele>
        <time>2012-07-17T12:39:35Z</time>
      </trkpt>
      <trkpt lat="42.80248" lon="-0.58229">
        <ele>1764.64</ele>
        <time>2012-07-17T12:39:47Z</time>
      </trkpt>
      <trkpt lat="42.80242" lon="-0.58219">
        <ele>1763.68</ele>
        <time>2012-07-17T12:40:00Z</time>
      </trkpt>
      <trkpt lat="42.80254" lon="-0.58213">
        <ele>1764.64</ele>
        <time>2012-07-17T12:40:10Z</time>
      </trkpt>
      <trkpt lat="42.80262" lon="-0.58209">
        <ele>1765.6</ele>
        <time>2012-07-17T12:40:22Z</time>
      </trkpt>
      <trkpt lat="42.80257" lon="-0.58202">
        <ele>1765.6</ele>
        <time>2012-07-17T12:42:21Z</time>
      </trkpt>
      <trkpt lat="42.80258" lon="-0.58208">
        <ele>1765.6</ele>
        <time>2012-07-17T12:42:32Z</time>
      </trkpt>
      <trkpt lat="42.80269" lon="-0.58201">
        <ele>1766.08</ele>
        <time>2012-07-17T12:42:44Z</time>
      </trkpt>
      <trkpt lat="42.80275" lon="-0.58193">
        <ele>1765.6</ele>
        <time>2012-07-17T12:42:52Z</time>
      </trkpt>
      <trkpt lat="42.80283" lon="-0.58187">
        <ele>1766.08</ele>
        <time>2012-07-17T12:43:01Z</time>
      </trkpt>
      <trkpt lat="42.80291" lon="-0.58184">
        <ele>1766.08</ele>
        <time>2012-07-17T12:43:12Z</time>
      </trkpt>
      <trkpt lat="42.803" lon="-0.58177">
        <ele>1766.56</ele>
        <time>2012-07-17T12:43:23Z</time>
      </trkpt>
      <trkpt lat="42.80307" lon="-0.58172">
        <ele>1766.56</ele>
        <time>2012-07-17T12:43:53Z</time>
      </trkpt>
      <trkpt lat="42.80312" lon="-0.58161">
        <ele>1766.08</ele>
        <time>2012-07-17T12:44:03Z</time>
      </trkpt>
      <trkpt lat="42.80317" lon="-0.58151">
        <ele>1766.56</ele>
        <time>2012-07-17T12:44:13Z</time>
      </trkpt>
      <trkpt lat="42.80321" lon="-0.58138">
        <ele>1766.08</ele>
        <time>2012-07-17T12:44:23Z</time>
      </trkpt>
      <trkpt lat="42.80323" lon="-0.58126">
        <ele>1767.04</ele>
        <time>2012-07-17T12:44:34Z</time>
      </trkpt>
      <trkpt lat="42.80328" lon="-0.58115">
        <ele>1766.56</ele>
        <time>2012-07-17T12:44:47Z</time>
      </trkpt>
      <trkpt lat="42.80333" lon="-0.58102">
        <ele>1767.52</ele>
        <time>2012-07-17T12:45:00Z</time>
      </trkpt>
      <trkpt lat="42.80336" lon="-0.5809">
        <ele>1768</ele>
        <time>2012-07-17T12:46:13Z</time>
      </trkpt>
      <trkpt lat="42.80336" lon="-0.58077">
        <ele>1768</ele>
        <time>2012-07-17T12:46:34Z</time>
      </trkpt>
      <trkpt lat="42.80338" lon="-0.58065">
        <ele>1768</ele>
        <time>2012-07-17T12:46:45Z</time>
      </trkpt>
      <trkpt lat="42.80343" lon="-0.58052">
        <ele>1767.04</ele>
        <time>2012-07-17T12:46:59Z</time>
      </trkpt>
      <trkpt lat="42.80349" lon="-0.58038">
        <ele>1766.56</ele>
        <time>2012-07-17T12:47:09Z</time>
      </trkpt>
      <trkpt lat="42.80355" lon="-0.58029">
        <ele>1766.08</ele>
        <time>2012-07-17T12:47:20Z</time>
      </trkpt>
      <trkpt lat="42.80358" lon="-0.58019">
        <ele>1768.48</ele>
        <time>2012-07-17T12:47:32Z</time>
      </trkpt>
      <trkpt lat="42.80357" lon="-0.58008">
        <ele>1771.37</ele>
        <time>2012-07-17T12:47:44Z</time>
      </trkpt>
      <trkpt lat="42.8036" lon="-0.57997">
        <ele>1771.85</ele>
        <time>2012-07-17T12:47:56Z</time>
      </trkpt>
      <trkpt lat="42.80356" lon="-0.57988">
        <ele>1771.85</ele>
        <time>2012-07-17T12:48:16Z</time>
      </trkpt>
      <trkpt lat="42.80358" lon="-0.57976">
        <ele>1769.92</ele>
        <time>2012-07-17T12:48:28Z</time>
      </trkpt>
      <trkpt lat="42.80363" lon="-0.57966">
        <ele>1768.48</ele>
        <time>2012-07-17T12:48:38Z</time>
      </trkpt>
      <trkpt lat="42.80362" lon="-0.57955">
        <ele>1768</ele>
        <time>2012-07-17T12:48:52Z</time>
      </trkpt>
      <trkpt lat="42.80367" lon="-0.57939">
        <ele>1767.04</ele>
        <time>2012-07-17T12:49:02Z</time>
      </trkpt>
      <trkpt lat="42.80371" lon="-0.57928">
        <ele>1766.56</ele>
        <time>2012-07-17T12:49:11Z</time>
      </trkpt>
      <trkpt lat="42.80368" lon="-0.57933">
        <ele>1766.08</ele>
        <time>2012-07-17T12:50:00Z</time>
      </trkpt>
      <trkpt lat="42.80368" lon="-0.57919">
        <ele>1765.6</ele>
        <time>2012-07-17T12:51:28Z</time>
      </trkpt>
      <trkpt lat="42.80373" lon="-0.57904">
        <ele>1764.16</ele>
        <time>2012-07-17T12:51:37Z</time>
      </trkpt>
      <trkpt lat="42.80373" lon="-0.5789">
        <ele>1764.64</ele>
        <time>2012-07-17T12:51:47Z</time>
      </trkpt>
      <trkpt lat="42.80374" lon="-0.57874">
        <ele>1764.64</ele>
        <time>2012-07-17T12:51:57Z</time>
      </trkpt>
      <trkpt lat="42.80374" lon="-0.57859">
        <ele>1764.16</ele>
        <time>2012-07-17T12:52:06Z</time>
      </trkpt>
      <trkpt lat="42.80376" lon="-0.57847">
        <ele>1763.2</ele>
        <time>2012-07-17T12:52:20Z</time>
      </trkpt>
      <trkpt lat="42.80377" lon="-0.57834">
        <ele>1761.75</ele>
        <time>2012-07-17T12:52:30Z</time>
      </trkpt>
      <trkpt lat="42.80377" lon="-0.57821">
        <ele>1761.27</ele>
        <time>2012-07-17T12:52:39Z</time>
      </trkpt>
      <trkpt lat="42.80376" lon="-0.57807">
        <ele>1761.27</ele>
        <time>2012-07-17T12:52:52Z</time>
      </trkpt>
      <trkpt lat="42.80379" lon="-0.57794">
        <ele>1760.31</ele>
        <time>2012-07-17T12:53:03Z</time>
      </trkpt>
      <trkpt lat="42.80381" lon="-0.57781">
        <ele>1759.83</ele>
        <time>2012-07-17T12:53:22Z</time>
      </trkpt>
      <trkpt lat="42.80381" lon="-0.57769">
        <ele>1759.83</ele>
        <time>2012-07-17T12:53:32Z</time>
      </trkpt>
      <trkpt lat="42.80381" lon="-0.57752">
        <ele>1759.35</ele>
        <time>2012-07-17T12:53:42Z</time>
      </trkpt>
      <trkpt lat="42.8038" lon="-0.57739">
        <ele>1759.35</ele>
        <time>2012-07-17T12:53:51Z</time>
      </trkpt>
      <trkpt lat="42.8038" lon="-0.57727">
        <ele>1759.35</ele>
        <time>2012-07-17T12:54:02Z</time>
      </trkpt>
      <trkpt lat="42.80378" lon="-0.57714">
        <ele>1759.35</ele>
        <time>2012-07-17T12:54:10Z</time>
      </trkpt>
      <trkpt lat="42.80373" lon="-0.57702">
        <ele>1759.35</ele>
        <time>2012-07-17T12:54:21Z</time>
      </trkpt>
      <trkpt lat="42.80368" lon="-0.57689">
        <ele>1759.35</ele>
        <time>2012-07-17T12:54:31Z</time>
      </trkpt>
      <trkpt lat="42.80365" lon="-0.57678">
        <ele>1758.87</ele>
        <time>2012-07-17T12:54:41Z</time>
      </trkpt>
      <trkpt lat="42.80359" lon="-0.57665">
        <ele>1759.83</ele>
        <time>2012-07-17T12:54:50Z</time>
      </trkpt>
      <trkpt lat="42.80354" lon="-0.57654">
        <ele>1759.83</ele>
        <time>2012-07-17T12:55:00Z</time>
      </trkpt>
      <trkpt lat="42.80349" lon="-0.57645">
        <ele>1760.79</ele>
        <time>2012-07-17T12:55:13Z</time>
      </trkpt>
      <trkpt lat="42.80343" lon="-0.57636">
        <ele>1760.79</ele>
        <time>2012-07-17T12:55:24Z</time>
      </trkpt>
      <trkpt lat="42.80341" lon="-0.57621">
        <ele>1760.79</ele>
        <time>2012-07-17T12:56:01Z</time>
      </trkpt>
      <trkpt lat="42.80342" lon="-0.57626">
        <ele>1761.27</ele>
        <time>2012-07-17T12:58:04Z</time>
      </trkpt>
      <trkpt lat="42.80343" lon="-0.57617">
        <ele>1761.27</ele>
        <time>2012-07-17T12:59:54Z</time>
      </trkpt>
      <trkpt lat="42.80341" lon="-0.576">
        <ele>1761.75</ele>
        <time>2012-07-17T13:00:04Z</time>
      </trkpt>
      <trkpt lat="42.80338" lon="-0.57586">
        <ele>1762.23</ele>
        <time>2012-07-17T13:00:14Z</time>
      </trkpt>
      <trkpt lat="42.80338" lon="-0.57576">
        <ele>1762.71</ele>
        <time>2012-07-17T13:00:23Z</time>
      </trkpt>
      <trkpt lat="42.80338" lon="-0.57565">
        <ele>1762.71</ele>
        <time>2012-07-17T13:00:37Z</time>
      </trkpt>
      <trkpt lat="42.80336" lon="-0.57553">
        <ele>1763.68</ele>
        <time>2012-07-17T13:00:49Z</time>
      </trkpt>
      <trkpt lat="42.80334" lon="-0.5754">
        <ele>1763.68</ele>
        <time>2012-07-17T13:01:00Z</time>
      </trkpt>
      <trkpt lat="42.80331" lon="-0.57527">
        <ele>1764.16</ele>
        <time>2012-07-17T13:01:10Z</time>
      </trkpt>
      <trkpt lat="42.80325" lon="-0.57516">
        <ele>1764.64</ele>
        <time>2012-07-17T13:01:20Z</time>
      </trkpt>
      <trkpt lat="42.80322" lon="-0.57504">
        <ele>1764.16</ele>
        <time>2012-07-17T13:01:29Z</time>
      </trkpt>
      <trkpt lat="42.80322" lon="-0.57492">
        <ele>1764.16</ele>
        <time>2012-07-17T13:01:38Z</time>
      </trkpt>
      <trkpt lat="42.8032" lon="-0.57481">
        <ele>1763.2</ele>
        <time>2012-07-17T13:01:48Z</time>
      </trkpt>
      <trkpt lat="42.80321" lon="-0.5747">
        <ele>1763.2</ele>
        <time>2012-07-17T13:01:58Z</time>
      </trkpt>
      <trkpt lat="42.80321" lon="-0.57459">
        <ele>1763.2</ele>
        <time>2012-07-17T13:02:07Z</time>
      </trkpt>
      <trkpt lat="42.8032" lon="-0.57445">
        <ele>1762.71</ele>
        <time>2012-07-17T13:02:15Z</time>
      </trkpt>
      <trkpt lat="42.80319" lon="-0.57431">
        <ele>1762.23</ele>
        <time>2012-07-17T13:02:23Z</time>
      </trkpt>
      <trkpt lat="42.80317" lon="-0.57419">
        <ele>1761.75</ele>
        <time>2012-07-17T13:02:30Z</time>
      </trkpt>
      <trkpt lat="42.80312" lon="-0.57411">
        <ele>1761.27</ele>
        <time>2012-07-17T13:02:36Z</time>
      </trkpt>
      <trkpt lat="42.8031" lon="-0.57401">
        <ele>1760.79</ele>
        <time>2012-07-17T13:02:46Z</time>
      </trkpt>
      <trkpt lat="42.80312" lon="-0.57389">
        <ele>1760.79</ele>
        <time>2012-07-17T13:02:55Z</time>
      </trkpt>
      <trkpt lat="42.80311" lon="-0.57374">
        <ele>1759.83</ele>
        <time>2012-07-17T13:03:03Z</time>
      </trkpt>
      <trkpt lat="42.8031" lon="-0.57361">
        <ele>1760.31</ele>
        <time>2012-07-17T13:03:12Z</time>
      </trkpt>
      <trkpt lat="42.80307" lon="-0.57349">
        <ele>1759.35</ele>
        <time>2012-07-17T13:03:22Z</time>
      </trkpt>
      <trkpt lat="42.80307" lon="-0.57337">
        <ele>1759.35</ele>
        <time>2012-07-17T13:03:31Z</time>
      </trkpt>
      <trkpt lat="42.80304" lon="-0.57323">
        <ele>1758.87</ele>
        <time>2012-07-17T13:03:40Z</time>
      </trkpt>
      <trkpt lat="42.80298" lon="-0.57313">
        <ele>1758.39</ele>
        <time>2012-07-17T13:03:48Z</time>
      </trkpt>
      <trkpt lat="42.80296" lon="-0.57301">
        <ele>1758.87</ele>
        <time>2012-07-17T13:03:56Z</time>
      </trkpt>
      <trkpt lat="42.80292" lon="-0.57291">
        <ele>1758.39</ele>
        <time>2012-07-17T13:04:06Z</time>
      </trkpt>
      <trkpt lat="42.80291" lon="-0.57278">
        <ele>1756.95</ele>
        <time>2012-07-17T13:04:18Z</time>
      </trkpt>
      <trkpt lat="42.8029" lon="-0.57266">
        <ele>1757.43</ele>
        <time>2012-07-17T13:04:27Z</time>
      </trkpt>
      <trkpt lat="42.80288" lon="-0.57253">
        <ele>1756.47</ele>
        <time>2012-07-17T13:04:36Z</time>
      </trkpt>
      <trkpt lat="42.80284" lon="-0.57243">
        <ele>1756.47</ele>
        <time>2012-07-17T13:04:47Z</time>
      </trkpt>
      <trkpt lat="42.80281" lon="-0.57234">
        <ele>1756.95</ele>
        <time>2012-07-17T13:05:08Z</time>
      </trkpt>
      <trkpt lat="42.80277" lon="-0.57223">
        <ele>1756.95</ele>
        <time>2012-07-17T13:05:20Z</time>
      </trkpt>
      <trkpt lat="42.80273" lon="-0.57212">
        <ele>1755.99</ele>
        <time>2012-07-17T13:05:31Z</time>
      </trkpt>
      <trkpt lat="42.80267" lon="-0.57207">
        <ele>1754.54</ele>
        <time>2012-07-17T13:05:53Z</time>
      </trkpt>
      <trkpt lat="42.80263" lon="-0.57196">
        <ele>1754.54</ele>
        <time>2012-07-17T13:06:12Z</time>
      </trkpt>
      <trkpt lat="42.80254" lon="-0.57192">
        <ele>1754.06</ele>
        <time>2012-07-17T13:06:27Z</time>
      </trkpt>
      <trkpt lat="42.80244" lon="-0.57187">
        <ele>1753.1</ele>
        <time>2012-07-17T13:06:36Z</time>
      </trkpt>
      <trkpt lat="42.80236" lon="-0.57182">
        <ele>1753.1</ele>
        <time>2012-07-17T13:06:49Z</time>
      </trkpt>
      <trkpt lat="42.80227" lon="-0.57182">
        <ele>1753.1</ele>
        <time>2012-07-17T13:07:04Z</time>
      </trkpt>
      <trkpt lat="42.80218" lon="-0.57186">
        <ele>1754.54</ele>
        <time>2012-07-17T13:07:14Z</time>
      </trkpt>
      <trkpt lat="42.80209" lon="-0.57183">
        <ele>1755.5</ele>
        <time>2012-07-17T13:07:28Z</time>
      </trkpt>
      <trkpt lat="42.802" lon="-0.57183">
        <ele>1754.06</ele>
        <time>2012-07-17T13:07:37Z</time>
      </trkpt>
      <trkpt lat="42.80191" lon="-0.57187">
        <ele>1754.54</ele>
        <time>2012-07-17T13:07:46Z</time>
      </trkpt>
      <trkpt lat="42.80182" lon="-0.57187">
        <ele>1754.06</ele>
        <time>2012-07-17T13:07:57Z</time>
      </trkpt>
      <trkpt lat="42.80177" lon="-0.57175">
        <ele>1755.02</ele>
        <time>2012-07-17T13:08:06Z</time>
      </trkpt>
      <trkpt lat="42.80172" lon="-0.57165">
        <ele>1755.5</ele>
        <time>2012-07-17T13:08:18Z</time>
      </trkpt>
      <trkpt lat="42.80164" lon="-0.57158">
        <ele>1755.99</ele>
        <time>2012-07-17T13:08:31Z</time>
      </trkpt>
      <trkpt lat="42.80162" lon="-0.57145">
        <ele>1755.02</ele>
        <time>2012-07-17T13:08:42Z</time>
      </trkpt>
      <trkpt lat="42.80163" lon="-0.57137">
        <ele>1753.1</ele>
        <time>2012-07-17T13:11:26Z</time>
      </trkpt>
      <trkpt lat="42.80158" lon="-0.5714">
        <ele>1754.54</ele>
        <time>2012-07-17T13:14:17Z</time>
      </trkpt>
      <trkpt lat="42.80151" lon="-0.57148">
        <ele>1753.58</ele>
        <time>2012-07-17T13:14:32Z</time>
      </trkpt>
      <trkpt lat="42.80157" lon="-0.57144">
        <ele>1753.58</ele>
        <time>2012-07-17T13:15:05Z</time>
      </trkpt>
      <trkpt lat="42.80155" lon="-0.57144">
        <ele>1754.06</ele>
        <time>2012-07-17T13:16:28Z</time>
      </trkpt>
      <trkpt lat="42.80161" lon="-0.5713">
        <ele>1753.58</ele>
        <time>2012-07-17T13:18:52Z</time>
      </trkpt>
      <trkpt lat="42.80159" lon="-0.57125">
        <ele>1751.18</ele>
        <time>2012-07-17T13:19:28Z</time>
      </trkpt>
      <trkpt lat="42.80158" lon="-0.57111">
        <ele>1750.7</ele>
        <time>2012-07-17T13:19:37Z</time>
      </trkpt>
      <trkpt lat="42.80156" lon="-0.57096">
        <ele>1749.74</ele>
        <time>2012-07-17T13:19:46Z</time>
      </trkpt>
      <trkpt lat="42.80152" lon="-0.57085">
        <ele>1749.26</ele>
        <time>2012-07-17T13:19:56Z</time>
      </trkpt>
      <trkpt lat="42.80146" lon="-0.57072">
        <ele>1748.29</ele>
        <time>2012-07-17T13:20:07Z</time>
      </trkpt>
      <trkpt lat="42.80142" lon="-0.57061">
        <ele>1746.85</ele>
        <time>2012-07-17T13:20:19Z</time>
      </trkpt>
      <trkpt lat="42.80141" lon="-0.57048">
        <ele>1745.41</ele>
        <time>2012-07-17T13:20:29Z</time>
      </trkpt>
      <trkpt lat="42.80146" lon="-0.57035">
        <ele>1743.49</ele>
        <time>2012-07-17T13:20:38Z</time>
      </trkpt>
      <trkpt lat="42.8015" lon="-0.57023">
        <ele>1741.57</ele>
        <time>2012-07-17T13:20:49Z</time>
      </trkpt>
      <trkpt lat="42.80153" lon="-0.57011">
        <ele>1739.64</ele>
        <time>2012-07-17T13:20:59Z</time>
      </trkpt>
      <trkpt lat="42.80156" lon="-0.57">
        <ele>1739.64</ele>
        <time>2012-07-17T13:21:11Z</time>
      </trkpt>
      <trkpt lat="42.8016" lon="-0.5699">
        <ele>1736.28</ele>
        <time>2012-07-17T13:21:26Z</time>
      </trkpt>
      <trkpt lat="42.80154" lon="-0.56981">
        <ele>1732.43</ele>
        <time>2012-07-17T13:21:40Z</time>
      </trkpt>
      <trkpt lat="42.80153" lon="-0.56969">
        <ele>1729.55</ele>
        <time>2012-07-17T13:21:55Z</time>
      </trkpt>
      <trkpt lat="42.80155" lon="-0.56959">
        <ele>1726.18</ele>
        <time>2012-07-17T13:22:10Z</time>
      </trkpt>
      <trkpt lat="42.80154" lon="-0.56946">
        <ele>1722.82</ele>
        <time>2012-07-17T13:22:22Z</time>
      </trkpt>
      <trkpt lat="42.80154" lon="-0.56934">
        <ele>1720.9</ele>
        <time>2012-07-17T13:22:38Z</time>
      </trkpt>
      <trkpt lat="42.80153" lon="-0.56922">
        <ele>1717.53</ele>
        <time>2012-07-17T13:22:53Z</time>
      </trkpt>
      <trkpt lat="42.80148" lon="-0.56912">
        <ele>1715.13</ele>
        <time>2012-07-17T13:23:05Z</time>
      </trkpt>
      <trkpt lat="42.80141" lon="-0.56903">
        <ele>1713.21</ele>
        <time>2012-07-17T13:23:16Z</time>
      </trkpt>
      <trkpt lat="42.80132" lon="-0.56898">
        <ele>1710.8</ele>
        <time>2012-07-17T13:23:28Z</time>
      </trkpt>
      <trkpt lat="42.80125" lon="-0.5689">
        <ele>1709.36</ele>
        <time>2012-07-17T13:23:39Z</time>
      </trkpt>
      <trkpt lat="42.80119" lon="-0.56881">
        <ele>1707.44</ele>
        <time>2012-07-17T13:23:51Z</time>
      </trkpt>
      <trkpt lat="42.80115" lon="-0.5687">
        <ele>1705.04</ele>
        <time>2012-07-17T13:24:02Z</time>
      </trkpt>
      <trkpt lat="42.80109" lon="-0.56861">
        <ele>1701.67</ele>
        <time>2012-07-17T13:24:14Z</time>
      </trkpt>
      <trkpt lat="42.80104" lon="-0.56852">
        <ele>1699.75</ele>
        <time>2012-07-17T13:24:32Z</time>
      </trkpt>
      <trkpt lat="42.80097" lon="-0.56845">
        <ele>1696.86</ele>
        <time>2012-07-17T13:24:45Z</time>
      </trkpt>
      <trkpt lat="42.80089" lon="-0.56846">
        <ele>1695.42</ele>
        <time>2012-07-17T13:24:56Z</time>
      </trkpt>
      <trkpt lat="42.8008" lon="-0.56846">
        <ele>1692.54</ele>
        <time>2012-07-17T13:25:17Z</time>
      </trkpt>
      <trkpt lat="42.80071" lon="-0.56843">
        <ele>1690.62</ele>
        <time>2012-07-17T13:25:30Z</time>
      </trkpt>
      <trkpt lat="42.80062" lon="-0.56834">
        <ele>1689.17</ele>
        <time>2012-07-17T13:25:43Z</time>
      </trkpt>
      <trkpt lat="42.80055" lon="-0.56826">
        <ele>1687.25</ele>
        <time>2012-07-17T13:25:55Z</time>
      </trkpt>
      <trkpt lat="42.80045" lon="-0.5682">
        <ele>1687.25</ele>
        <time>2012-07-17T13:26:05Z</time>
      </trkpt>
      <trkpt lat="42.80036" lon="-0.56819">
        <ele>1686.77</ele>
        <time>2012-07-17T13:26:16Z</time>
      </trkpt>
      <trkpt lat="42.80029" lon="-0.56817">
        <ele>1686.77</ele>
        <time>2012-07-17T13:27:01Z</time>
      </trkpt>
      <trkpt lat="42.80021" lon="-0.56814">
        <ele>1685.33</ele>
        <time>2012-07-17T13:27:43Z</time>
      </trkpt>
      <trkpt lat="42.80013" lon="-0.56811">
        <ele>1683.41</ele>
        <time>2012-07-17T13:27:53Z</time>
      </trkpt>
      <trkpt lat="42.80005" lon="-0.56806">
        <ele>1679.08</ele>
        <time>2012-07-17T13:28:15Z</time>
      </trkpt>
      <trkpt lat="42.80004" lon="-0.56793">
        <ele>1676.68</ele>
        <time>2012-07-17T13:28:27Z</time>
      </trkpt>
      <trkpt lat="42.80001" lon="-0.56781">
        <ele>1674.75</ele>
        <time>2012-07-17T13:28:38Z</time>
      </trkpt>
      <trkpt lat="42.79996" lon="-0.56771">
        <ele>1673.31</ele>
        <time>2012-07-17T13:28:50Z</time>
      </trkpt>
      <trkpt lat="42.79992" lon="-0.5676">
        <ele>1670.91</ele>
        <time>2012-07-17T13:29:01Z</time>
      </trkpt>
      <trkpt lat="42.79988" lon="-0.56748">
        <ele>1668.99</ele>
        <time>2012-07-17T13:29:11Z</time>
      </trkpt>
      <trkpt lat="42.79982" lon="-0.5674">
        <ele>1666.58</ele>
        <time>2012-07-17T13:29:25Z</time>
      </trkpt>
      <trkpt lat="42.79976" lon="-0.5673">
        <ele>1665.14</ele>
        <time>2012-07-17T13:29:39Z</time>
      </trkpt>
      <trkpt lat="42.79971" lon="-0.56721">
        <ele>1662.74</ele>
        <time>2012-07-17T13:29:50Z</time>
      </trkpt>
      <trkpt lat="42.79966" lon="-0.56713">
        <ele>1658.89</ele>
        <time>2012-07-17T13:30:07Z</time>
      </trkpt>
      <trkpt lat="42.79958" lon="-0.56716">
        <ele>1656.49</ele>
        <time>2012-07-17T13:30:28Z</time>
      </trkpt>
      <trkpt lat="42.79954" lon="-0.56705">
        <ele>1656.49</ele>
        <time>2012-07-17T13:31:00Z</time>
      </trkpt>
      <trkpt lat="42.79952" lon="-0.56693">
        <ele>1654.09</ele>
        <time>2012-07-17T13:31:10Z</time>
      </trkpt>
      <trkpt lat="42.7995" lon="-0.56681">
        <ele>1651.68</ele>
        <time>2012-07-17T13:31:22Z</time>
      </trkpt>
      <trkpt lat="42.79948" lon="-0.56671">
        <ele>1650.72</ele>
        <time>2012-07-17T13:31:48Z</time>
      </trkpt>
      <trkpt lat="42.79939" lon="-0.56667">
        <ele>1648.32</ele>
        <time>2012-07-17T13:32:06Z</time>
      </trkpt>
      <trkpt lat="42.79931" lon="-0.56661">
        <ele>1645.91</ele>
        <time>2012-07-17T13:32:18Z</time>
      </trkpt>
      <trkpt lat="42.79925" lon="-0.56653">
        <ele>1644.47</ele>
        <time>2012-07-17T13:32:32Z</time>
      </trkpt>
      <trkpt lat="42.79917" lon="-0.56646">
        <ele>1642.55</ele>
        <time>2012-07-17T13:32:42Z</time>
      </trkpt>
      <trkpt lat="42.79914" lon="-0.56635">
        <ele>1640.15</ele>
        <time>2012-07-17T13:32:53Z</time>
      </trkpt>
      <trkpt lat="42.79907" lon="-0.56622">
        <ele>1639.19</ele>
        <time>2012-07-17T13:33:03Z</time>
      </trkpt>
      <trkpt lat="42.79904" lon="-0.56612">
        <ele>1637.74</ele>
        <time>2012-07-17T13:33:16Z</time>
      </trkpt>
      <trkpt lat="42.79902" lon="-0.56609">
        <ele>1636.78</ele>
        <time>2012-07-17T13:40:32Z</time>
      </trkpt>
      <trkpt lat="42.79903" lon="-0.56607">
        <ele>1636.3</ele>
        <time>2012-07-17T13:41:35Z</time>
      </trkpt>
      <trkpt lat="42.79896" lon="-0.56602">
        <ele>1635.34</ele>
        <time>2012-07-17T13:43:05Z</time>
      </trkpt>
      <trkpt lat="42.79891" lon="-0.56589">
        <ele>1635.34</ele>
        <time>2012-07-17T13:43:16Z</time>
      </trkpt>
      <trkpt lat="42.79886" lon="-0.56575">
        <ele>1634.86</ele>
        <time>2012-07-17T13:43:27Z</time>
      </trkpt>
      <trkpt lat="42.79879" lon="-0.56566">
        <ele>1632.94</ele>
        <time>2012-07-17T13:43:37Z</time>
      </trkpt>
      <trkpt lat="42.79872" lon="-0.56559">
        <ele>1631.98</ele>
        <time>2012-07-17T13:44:46Z</time>
      </trkpt>
      <trkpt lat="42.79864" lon="-0.56552">
        <ele>1630.05</ele>
        <time>2012-07-17T13:44:57Z</time>
      </trkpt>
      <trkpt lat="42.79856" lon="-0.56546">
        <ele>1628.61</ele>
        <time>2012-07-17T13:45:07Z</time>
      </trkpt>
      <trkpt lat="42.7985" lon="-0.56532">
        <ele>1627.65</ele>
        <time>2012-07-17T13:45:16Z</time>
      </trkpt>
      <trkpt lat="42.79849" lon="-0.5652">
        <ele>1626.69</ele>
        <time>2012-07-17T13:45:25Z</time>
      </trkpt>
      <trkpt lat="42.79851" lon="-0.56509">
        <ele>1624.28</ele>
        <time>2012-07-17T13:45:38Z</time>
      </trkpt>
      <trkpt lat="42.79854" lon="-0.56496">
        <ele>1623.32</ele>
        <time>2012-07-17T13:45:49Z</time>
      </trkpt>
      <trkpt lat="42.79863" lon="-0.56487">
        <ele>1621.88</ele>
        <time>2012-07-17T13:45:59Z</time>
      </trkpt>
      <trkpt lat="42.79867" lon="-0.56478">
        <ele>1619.48</ele>
        <time>2012-07-17T13:46:10Z</time>
      </trkpt>
      <trkpt lat="42.7987" lon="-0.56467">
        <ele>1617.56</ele>
        <time>2012-07-17T13:46:22Z</time>
      </trkpt>
      <trkpt lat="42.79862" lon="-0.56457">
        <ele>1615.15</ele>
        <time>2012-07-17T13:46:43Z</time>
      </trkpt>
      <trkpt lat="42.79858" lon="-0.56447">
        <ele>1613.23</ele>
        <time>2012-07-17T13:46:54Z</time>
      </trkpt>
      <trkpt lat="42.79859" lon="-0.56435">
        <ele>1610.83</ele>
        <time>2012-07-17T13:47:06Z</time>
      </trkpt>
      <trkpt lat="42.79868" lon="-0.56428">
        <ele>1607.94</ele>
        <time>2012-07-17T13:47:18Z</time>
      </trkpt>
      <trkpt lat="42.79877" lon="-0.56422">
        <ele>1606.02</ele>
        <time>2012-07-17T13:47:27Z</time>
      </trkpt>
      <trkpt lat="42.79883" lon="-0.56418">
        <ele>1603.62</ele>
        <time>2012-07-17T13:47:41Z</time>
      </trkpt>
      <trkpt lat="42.79892" lon="-0.56418">
        <ele>1600.73</ele>
        <time>2012-07-17T13:47:56Z</time>
      </trkpt>
      <trkpt lat="42.79898" lon="-0.5641">
        <ele>1599.29</ele>
        <time>2012-07-17T13:48:05Z</time>
      </trkpt>
      <trkpt lat="42.79901" lon="-0.56399">
        <ele>1596.41</ele>
        <time>2012-07-17T13:48:17Z</time>
      </trkpt>
      <trkpt lat="42.7991" lon="-0.56396">
        <ele>1594.48</ele>
        <time>2012-07-17T13:48:28Z</time>
      </trkpt>
      <trkpt lat="42.79917" lon="-0.5639">
        <ele>1593.52</ele>
        <time>2012-07-17T13:48:37Z</time>
      </trkpt>
      <trkpt lat="42.79927" lon="-0.56384">
        <ele>1592.56</ele>
        <time>2012-07-17T13:48:46Z</time>
      </trkpt>
      <trkpt lat="42.79935" lon="-0.56378">
        <ele>1591.12</ele>
        <time>2012-07-17T13:48:56Z</time>
      </trkpt>
      <trkpt lat="42.79944" lon="-0.56373">
        <ele>1588.72</ele>
        <time>2012-07-17T13:49:09Z</time>
      </trkpt>
      <trkpt lat="42.79953" lon="-0.56372">
        <ele>1587.75</ele>
        <time>2012-07-17T13:49:33Z</time>
      </trkpt>
      <trkpt lat="42.79962" lon="-0.56374">
        <ele>1585.35</ele>
        <time>2012-07-17T13:49:47Z</time>
      </trkpt>
      <trkpt lat="42.79974" lon="-0.5638">
        <ele>1581.03</ele>
        <time>2012-07-17T13:50:42Z</time>
      </trkpt>
      <trkpt lat="42.79989" lon="-0.56386">
        <ele>1580.06</ele>
        <time>2012-07-17T13:50:52Z</time>
      </trkpt>
      <trkpt lat="42.79998" lon="-0.56388">
        <ele>1578.14</ele>
        <time>2012-07-17T13:51:05Z</time>
      </trkpt>
      <trkpt lat="42.80008" lon="-0.56385">
        <ele>1577.66</ele>
        <time>2012-07-17T13:51:18Z</time>
      </trkpt>
      <trkpt lat="42.8002" lon="-0.56399">
        <ele>1576.7</ele>
        <time>2012-07-17T13:51:30Z</time>
      </trkpt>
      <trkpt lat="42.8003" lon="-0.56402">
        <ele>1574.3</ele>
        <time>2012-07-17T13:51:42Z</time>
      </trkpt>
      <trkpt lat="42.80038" lon="-0.56392">
        <ele>1573.82</ele>
        <time>2012-07-17T13:51:50Z</time>
      </trkpt>
      <trkpt lat="42.8004" lon="-0.5638">
        <ele>1572.85</ele>
        <time>2012-07-17T13:52:00Z</time>
      </trkpt>
      <trkpt lat="42.80042" lon="-0.56368">
        <ele>1571.89</ele>
        <time>2012-07-17T13:52:09Z</time>
      </trkpt>
      <trkpt lat="42.80047" lon="-0.56356">
        <ele>1570.45</ele>
        <time>2012-07-17T13:52:21Z</time>
      </trkpt>
      <trkpt lat="42.80048" lon="-0.56344">
        <ele>1568.53</ele>
        <time>2012-07-17T13:52:38Z</time>
      </trkpt>
      <trkpt lat="42.80055" lon="-0.56334">
        <ele>1567.09</ele>
        <time>2012-07-17T13:52:49Z</time>
      </trkpt>
      <trkpt lat="42.80061" lon="-0.56326">
        <ele>1565.16</ele>
        <time>2012-07-17T13:53:01Z</time>
      </trkpt>
      <trkpt lat="42.80058" lon="-0.56319">
        <ele>1563.72</ele>
        <time>2012-07-17T13:53:14Z</time>
      </trkpt>
      <trkpt lat="42.80049" lon="-0.56324">
        <ele>1562.76</ele>
        <time>2012-07-17T13:53:20Z</time>
      </trkpt>
      <trkpt lat="42.80039" lon="-0.56327">
        <ele>1561.8</ele>
        <time>2012-07-17T13:53:27Z</time>
      </trkpt>
      <trkpt lat="42.80029" lon="-0.5633">
        <ele>1560.36</ele>
        <time>2012-07-17T13:53:37Z</time>
      </trkpt>
      <trkpt lat="42.80022" lon="-0.56333">
        <ele>1559.4</ele>
        <time>2012-07-17T13:53:46Z</time>
      </trkpt>
      <trkpt lat="42.80029" lon="-0.56325">
        <ele>1557.95</ele>
        <time>2012-07-17T13:53:57Z</time>
      </trkpt>
      <trkpt lat="42.80042" lon="-0.56315">
        <ele>1556.51</ele>
        <time>2012-07-17T13:54:08Z</time>
      </trkpt>
      <trkpt lat="42.80048" lon="-0.56304">
        <ele>1555.07</ele>
        <time>2012-07-17T13:54:19Z</time>
      </trkpt>
      <trkpt lat="42.80055" lon="-0.56296">
        <ele>1553.63</ele>
        <time>2012-07-17T13:54:30Z</time>
      </trkpt>
      <trkpt lat="42.80059" lon="-0.56283">
        <ele>1551.71</ele>
        <time>2012-07-17T13:54:41Z</time>
      </trkpt>
      <trkpt lat="42.80063" lon="-0.56274">
        <ele>1550.26</ele>
        <time>2012-07-17T13:54:53Z</time>
      </trkpt>
      <trkpt lat="42.80073" lon="-0.56267">
        <ele>1548.82</ele>
        <time>2012-07-17T13:55:03Z</time>
      </trkpt>
      <trkpt lat="42.8008" lon="-0.56263">
        <ele>1547.38</ele>
        <time>2012-07-17T13:55:14Z</time>
      </trkpt>
      <trkpt lat="42.80087" lon="-0.56272">
        <ele>1546.42</ele>
        <time>2012-07-17T13:55:24Z</time>
      </trkpt>
      <trkpt lat="42.80095" lon="-0.56279">
        <ele>1544.5</ele>
        <time>2012-07-17T13:55:34Z</time>
      </trkpt>
      <trkpt lat="42.80103" lon="-0.56284">
        <ele>1542.57</ele>
        <time>2012-07-17T13:55:49Z</time>
      </trkpt>
      <trkpt lat="42.80102" lon="-0.56273">
        <ele>1541.13</ele>
        <time>2012-07-17T13:56:02Z</time>
      </trkpt>
      <trkpt lat="42.80099" lon="-0.56261">
        <ele>1539.69</ele>
        <time>2012-07-17T13:56:11Z</time>
      </trkpt>
      <trkpt lat="42.80099" lon="-0.56248">
        <ele>1537.77</ele>
        <time>2012-07-17T13:56:22Z</time>
      </trkpt>
      <trkpt lat="42.80098" lon="-0.56235">
        <ele>1537.29</ele>
        <time>2012-07-17T13:56:30Z</time>
      </trkpt>
      <trkpt lat="42.80091" lon="-0.56227">
        <ele>1535.84</ele>
        <time>2012-07-17T13:56:40Z</time>
      </trkpt>
      <trkpt lat="42.80082" lon="-0.56224">
        <ele>1534.4</ele>
        <time>2012-07-17T13:56:49Z</time>
      </trkpt>
      <trkpt lat="42.80069" lon="-0.56222">
        <ele>1533.44</ele>
        <time>2012-07-17T13:56:59Z</time>
      </trkpt>
      <trkpt lat="42.80057" lon="-0.56221">
        <ele>1531.52</ele>
        <time>2012-07-17T13:57:09Z</time>
      </trkpt>
      <trkpt lat="42.80048" lon="-0.56223">
        <ele>1529.11</ele>
        <time>2012-07-17T13:57:19Z</time>
      </trkpt>
      <trkpt lat="42.80038" lon="-0.56224">
        <ele>1528.15</ele>
        <time>2012-07-17T13:57:29Z</time>
      </trkpt>
      <trkpt lat="42.80024" lon="-0.56226">
        <ele>1526.71</ele>
        <time>2012-07-17T13:57:38Z</time>
      </trkpt>
      <trkpt lat="42.80012" lon="-0.56226">
        <ele>1524.79</ele>
        <time>2012-07-17T13:57:49Z</time>
      </trkpt>
      <trkpt lat="42.80004" lon="-0.5622">
        <ele>1523.83</ele>
        <time>2012-07-17T13:58:00Z</time>
      </trkpt>
      <trkpt lat="42.79996" lon="-0.56216">
        <ele>1522.39</ele>
        <time>2012-07-17T13:58:12Z</time>
      </trkpt>
      <trkpt lat="42.79988" lon="-0.5621">
        <ele>1521.42</ele>
        <time>2012-07-17T13:58:20Z</time>
      </trkpt>
      <trkpt lat="42.79981" lon="-0.56205">
        <ele>1519.98</ele>
        <time>2012-07-17T13:58:27Z</time>
      </trkpt>
      <trkpt lat="42.79975" lon="-0.56198">
        <ele>1519.5</ele>
        <time>2012-07-17T13:58:35Z</time>
      </trkpt>
      <trkpt lat="42.79971" lon="-0.56188">
        <ele>1518.06</ele>
        <time>2012-07-17T13:58:48Z</time>
      </trkpt>
      <trkpt lat="42.79977" lon="-0.56178">
        <ele>1515.66</ele>
        <time>2012-07-17T13:58:59Z</time>
      </trkpt>
      <trkpt lat="42.79979" lon="-0.56166">
        <ele>1513.25</ele>
        <time>2012-07-17T13:59:12Z</time>
      </trkpt>
      <trkpt lat="42.7998" lon="-0.56154">
        <ele>1510.37</ele>
        <time>2012-07-17T13:59:25Z</time>
      </trkpt>
      <trkpt lat="42.79985" lon="-0.56139">
        <ele>1508.93</ele>
        <time>2012-07-17T13:59:35Z</time>
      </trkpt>
      <trkpt lat="42.79984" lon="-0.56129">
        <ele>1507.97</ele>
        <time>2012-07-17T13:59:47Z</time>
      </trkpt>
      <trkpt lat="42.79988" lon="-0.56118">
        <ele>1506.52</ele>
        <time>2012-07-17T13:59:57Z</time>
      </trkpt>
      <trkpt lat="42.79991" lon="-0.56106">
        <ele>1505.08</ele>
        <time>2012-07-17T14:00:06Z</time>
      </trkpt>
      <trkpt lat="42.79997" lon="-0.56097">
        <ele>1503.16</ele>
        <time>2012-07-17T14:00:16Z</time>
      </trkpt>
      <trkpt lat="42.80007" lon="-0.5609">
        <ele>1502.68</ele>
        <time>2012-07-17T14:00:26Z</time>
      </trkpt>
      <trkpt lat="42.80017" lon="-0.56087">
        <ele>1501.72</ele>
        <time>2012-07-17T14:00:36Z</time>
      </trkpt>
      <trkpt lat="42.80026" lon="-0.5608">
        <ele>1500.27</ele>
        <time>2012-07-17T14:00:49Z</time>
      </trkpt>
      <trkpt lat="42.80031" lon="-0.56082">
        <ele>1498.83</ele>
        <time>2012-07-17T14:02:04Z</time>
      </trkpt>
      <trkpt lat="42.80058" lon="-0.56076">
        <ele>1496.43</ele>
        <time>2012-07-17T14:06:46Z</time>
      </trkpt>
      <trkpt lat="42.80058" lon="-0.56064">
        <ele>1494.03</ele>
        <time>2012-07-17T14:07:02Z</time>
      </trkpt>
      <trkpt lat="42.80063" lon="-0.56055">
        <ele>1491.62</ele>
        <time>2012-07-17T14:07:16Z</time>
      </trkpt>
      <trkpt lat="42.80069" lon="-0.56043">
        <ele>1490.18</ele>
        <time>2012-07-17T14:07:27Z</time>
      </trkpt>
      <trkpt lat="42.80071" lon="-0.5603">
        <ele>1488.74</ele>
        <time>2012-07-17T14:07:39Z</time>
      </trkpt>
      <trkpt lat="42.80073" lon="-0.56014">
        <ele>1486.34</ele>
        <time>2012-07-17T14:07:49Z</time>
      </trkpt>
      <trkpt lat="42.80074" lon="-0.56001">
        <ele>1483.93</ele>
        <time>2012-07-17T14:08:00Z</time>
      </trkpt>
      <trkpt lat="42.80079" lon="-0.55991">
        <ele>1481.05</ele>
        <time>2012-07-17T14:08:20Z</time>
      </trkpt>
      <trkpt lat="42.80079" lon="-0.55964">
        <ele>1479.13</ele>
        <time>2012-07-17T14:08:32Z</time>
      </trkpt>
      <trkpt lat="42.80077" lon="-0.55951">
        <ele>1477.68</ele>
        <time>2012-07-17T14:08:38Z</time>
      </trkpt>
      <trkpt lat="42.80074" lon="-0.55939">
        <ele>1476.72</ele>
        <time>2012-07-17T14:08:46Z</time>
      </trkpt>
      <trkpt lat="42.80071" lon="-0.55927">
        <ele>1475.28</ele>
        <time>2012-07-17T14:08:58Z</time>
      </trkpt>
      <trkpt lat="42.80067" lon="-0.55916">
        <ele>1472.4</ele>
        <time>2012-07-17T14:09:22Z</time>
      </trkpt>
      <trkpt lat="42.80065" lon="-0.5591">
        <ele>1468.07</ele>
        <time>2012-07-17T14:09:55Z</time>
      </trkpt>
      <trkpt lat="42.80059" lon="-0.55903">
        <ele>1464.23</ele>
        <time>2012-07-17T14:10:16Z</time>
      </trkpt>
      <trkpt lat="42.80061" lon="-0.55884">
        <ele>1462.3</ele>
        <time>2012-07-17T14:10:24Z</time>
      </trkpt>
      <trkpt lat="42.80067" lon="-0.55871">
        <ele>1462.78</ele>
        <time>2012-07-17T14:10:31Z</time>
      </trkpt>
      <trkpt lat="42.80073" lon="-0.55862">
        <ele>1461.34</ele>
        <time>2012-07-17T14:10:39Z</time>
      </trkpt>
      <trkpt lat="42.80073" lon="-0.55854">
        <ele>1459.42</ele>
        <time>2012-07-17T14:10:47Z</time>
      </trkpt>
      <trkpt lat="42.80079" lon="-0.55849">
        <ele>1458.94</ele>
        <time>2012-07-17T14:10:56Z</time>
      </trkpt>
      <trkpt lat="42.80088" lon="-0.55851">
        <ele>1457.98</ele>
        <time>2012-07-17T14:11:06Z</time>
      </trkpt>
      <trkpt lat="42.80097" lon="-0.55854">
        <ele>1456.53</ele>
        <time>2012-07-17T14:11:17Z</time>
      </trkpt>
      <trkpt lat="42.80106" lon="-0.55857">
        <ele>1454.61</ele>
        <time>2012-07-17T14:11:29Z</time>
      </trkpt>
      <trkpt lat="42.80114" lon="-0.55863">
        <ele>1453.17</ele>
        <time>2012-07-17T14:11:42Z</time>
      </trkpt>
      <trkpt lat="42.80121" lon="-0.5587">
        <ele>1451.25</ele>
        <time>2012-07-17T14:11:54Z</time>
      </trkpt>
      <trkpt lat="42.80126" lon="-0.5588">
        <ele>1448.84</ele>
        <time>2012-07-17T14:12:09Z</time>
      </trkpt>
      <trkpt lat="42.80133" lon="-0.55888">
        <ele>1446.44</ele>
        <time>2012-07-17T14:12:22Z</time>
      </trkpt>
      <trkpt lat="42.80143" lon="-0.559">
        <ele>1445.96</ele>
        <time>2012-07-17T14:12:30Z</time>
      </trkpt>
      <trkpt lat="42.80154" lon="-0.55905">
        <ele>1445</ele>
        <time>2012-07-17T14:12:38Z</time>
      </trkpt>
      <trkpt lat="42.80165" lon="-0.55905">
        <ele>1445</ele>
        <time>2012-07-17T14:12:46Z</time>
      </trkpt>
      <trkpt lat="42.80157" lon="-0.55898">
        <ele>1444.04</ele>
        <time>2012-07-17T14:14:36Z</time>
      </trkpt>
      <trkpt lat="42.80158" lon="-0.55887">
        <ele>1443.08</ele>
        <time>2012-07-17T14:15:01Z</time>
      </trkpt>
      <trkpt lat="42.80153" lon="-0.5588">
        <ele>1441.63</ele>
        <time>2012-07-17T14:15:19Z</time>
      </trkpt>
      <trkpt lat="42.80144" lon="-0.55875">
        <ele>1440.19</ele>
        <time>2012-07-17T14:15:29Z</time>
      </trkpt>
      <trkpt lat="42.80135" lon="-0.55874">
        <ele>1438.75</ele>
        <time>2012-07-17T14:15:38Z</time>
      </trkpt>
      <trkpt lat="42.80125" lon="-0.55871">
        <ele>1436.83</ele>
        <time>2012-07-17T14:15:47Z</time>
      </trkpt>
      <trkpt lat="42.80118" lon="-0.55862">
        <ele>1436.35</ele>
        <time>2012-07-17T14:15:57Z</time>
      </trkpt>
      <trkpt lat="42.80115" lon="-0.5585">
        <ele>1433.94</ele>
        <time>2012-07-17T14:16:09Z</time>
      </trkpt>
      <trkpt lat="42.80116" lon="-0.55837">
        <ele>1432.98</ele>
        <time>2012-07-17T14:16:19Z</time>
      </trkpt>
      <trkpt lat="42.80112" lon="-0.55824">
        <ele>1431.06</ele>
        <time>2012-07-17T14:16:30Z</time>
      </trkpt>
      <trkpt lat="42.80108" lon="-0.55813">
        <ele>1429.62</ele>
        <time>2012-07-17T14:16:42Z</time>
      </trkpt>
      <trkpt lat="42.80102" lon="-0.55802">
        <ele>1428.18</ele>
        <time>2012-07-17T14:16:54Z</time>
      </trkpt>
      <trkpt lat="42.80098" lon="-0.55792">
        <ele>1427.7</ele>
        <time>2012-07-17T14:17:06Z</time>
      </trkpt>
      <trkpt lat="42.80099" lon="-0.55778">
        <ele>1427.21</ele>
        <time>2012-07-17T14:17:21Z</time>
      </trkpt>
      <trkpt lat="42.80096" lon="-0.55765">
        <ele>1425.77</ele>
        <time>2012-07-17T14:17:31Z</time>
      </trkpt>
      <trkpt lat="42.80092" lon="-0.55751">
        <ele>1424.33</ele>
        <time>2012-07-17T14:17:41Z</time>
      </trkpt>
      <trkpt lat="42.80085" lon="-0.55745">
        <ele>1422.41</ele>
        <time>2012-07-17T14:17:53Z</time>
      </trkpt>
      <trkpt lat="42.80069" lon="-0.55749">
        <ele>1420.97</ele>
        <time>2012-07-17T14:18:01Z</time>
      </trkpt>
      <trkpt lat="42.80057" lon="-0.55748">
        <ele>1419.52</ele>
        <time>2012-07-17T14:18:10Z</time>
      </trkpt>
      <trkpt lat="42.80049" lon="-0.55742">
        <ele>1418.08</ele>
        <time>2012-07-17T14:18:22Z</time>
      </trkpt>
      <trkpt lat="42.80049" lon="-0.55738">
        <ele>1416.16</ele>
        <time>2012-07-17T14:18:39Z</time>
      </trkpt>
      <trkpt lat="42.8004" lon="-0.55736">
        <ele>1414.24</ele>
        <time>2012-07-17T14:18:52Z</time>
      </trkpt>
      <trkpt lat="42.80033" lon="-0.55735">
        <ele>1412.31</ele>
        <time>2012-07-17T14:19:32Z</time>
      </trkpt>
      <trkpt lat="42.80029" lon="-0.55726">
        <ele>1408.95</ele>
        <time>2012-07-17T14:20:51Z</time>
      </trkpt>
      <trkpt lat="42.80022" lon="-0.5572">
        <ele>1406.55</ele>
        <time>2012-07-17T14:21:04Z</time>
      </trkpt>
      <trkpt lat="42.80013" lon="-0.55715">
        <ele>1405.1</ele>
        <time>2012-07-17T14:21:17Z</time>
      </trkpt>
      <trkpt lat="42.80003" lon="-0.55711">
        <ele>1403.66</ele>
        <time>2012-07-17T14:21:26Z</time>
      </trkpt>
      <trkpt lat="42.79997" lon="-0.55701">
        <ele>1402.7</ele>
        <time>2012-07-17T14:21:35Z</time>
      </trkpt>
      <trkpt lat="42.7999" lon="-0.55693">
        <ele>1401.74</ele>
        <time>2012-07-17T14:21:45Z</time>
      </trkpt>
      <trkpt lat="42.79976" lon="-0.55693">
        <ele>1401.26</ele>
        <time>2012-07-17T14:21:55Z</time>
      </trkpt>
      <trkpt lat="42.79973" lon="-0.55711">
        <ele>1394.53</ele>
        <time>2012-07-17T14:22:31Z</time>
      </trkpt>
      <trkpt lat="42.79959" lon="-0.55725">
        <ele>1385.4</ele>
        <time>2012-07-17T14:23:18Z</time>
      </trkpt>
      <trkpt lat="42.79948" lon="-0.55721">
        <ele>1383.47</ele>
        <time>2012-07-17T14:23:33Z</time>
      </trkpt>
      <trkpt lat="42.79937" lon="-0.55728">
        <ele>1382.51</ele>
        <time>2012-07-17T14:23:45Z</time>
      </trkpt>
      <trkpt lat="42.79916" lon="-0.55738">
        <ele>1379.15</ele>
        <time>2012-07-17T14:24:14Z</time>
      </trkpt>
      <trkpt lat="42.79869" lon="-0.55743">
        <ele>1371.94</ele>
        <time>2012-07-17T14:25:10Z</time>
      </trkpt>
      <trkpt lat="42.79855" lon="-0.55752">
        <ele>1368.57</ele>
        <time>2012-07-17T14:25:32Z</time>
      </trkpt>
      <trkpt lat="42.79855" lon="-0.55749">
        <ele>1366.65</ele>
        <time>2012-07-17T14:25:47Z</time>
      </trkpt>
      <trkpt lat="42.79838" lon="-0.55758">
        <ele>1362.81</ele>
        <time>2012-07-17T14:26:09Z</time>
      </trkpt>
      <trkpt lat="42.79814" lon="-0.55785">
        <ele>1358.96</ele>
        <time>2012-07-17T14:26:35Z</time>
      </trkpt>
      <trkpt lat="42.79812" lon="-0.55777">
        <ele>1356.08</ele>
        <time>2012-07-17T14:26:50Z</time>
      </trkpt>
      <trkpt lat="42.79807" lon="-0.55766">
        <ele>1354.15</ele>
        <time>2012-07-17T14:27:04Z</time>
      </trkpt>
      <trkpt lat="42.7981" lon="-0.55755">
        <ele>1352.23</ele>
        <time>2012-07-17T14:27:24Z</time>
      </trkpt>
      <trkpt lat="42.79818" lon="-0.55746">
        <ele>1351.27</ele>
        <time>2012-07-17T14:27:32Z</time>
      </trkpt>
      <trkpt lat="42.79825" lon="-0.5574">
        <ele>1349.83</ele>
        <time>2012-07-17T14:27:39Z</time>
      </trkpt>
      <trkpt lat="42.79808" lon="-0.55728">
        <ele>1345.98</ele>
        <time>2012-07-17T14:28:06Z</time>
      </trkpt>
      <trkpt lat="42.798" lon="-0.55735">
        <ele>1344.54</ele>
        <time>2012-07-17T14:28:16Z</time>
      </trkpt>
      <trkpt lat="42.79801" lon="-0.55746">
        <ele>1336.85</ele>
        <time>2012-07-17T14:29:18Z</time>
      </trkpt>
      <trkpt lat="42.79795" lon="-0.5575">
        <ele>1334.45</ele>
        <time>2012-07-17T14:29:45Z</time>
      </trkpt>
      <trkpt lat="42.79792" lon="-0.55735">
        <ele>1333.01</ele>
        <time>2012-07-17T14:30:03Z</time>
      </trkpt>
      <trkpt lat="42.79775" lon="-0.55731">
        <ele>1332.52</ele>
        <time>2012-07-17T14:30:13Z</time>
      </trkpt>
      <trkpt lat="42.79774" lon="-0.55725">
        <ele>1331.56</ele>
        <time>2012-07-17T14:30:24Z</time>
      </trkpt>
      <trkpt lat="42.79774" lon="-0.55713">
        <ele>1330.12</ele>
        <time>2012-07-17T14:30:36Z</time>
      </trkpt>
      <trkpt lat="42.7977" lon="-0.55704">
        <ele>1329.16</ele>
        <time>2012-07-17T14:30:50Z</time>
      </trkpt>
      <trkpt lat="42.79771" lon="-0.55692">
        <ele>1328.68</ele>
        <time>2012-07-17T14:31:15Z</time>
      </trkpt>
      <trkpt lat="42.79738" lon="-0.55509">
        <ele>1333.01</ele>
        <time>2012-07-17T14:44:10Z</time>
      </trkpt>
      <trkpt lat="42.7972" lon="-0.55521">
        <ele>1333.49</ele>
        <time>2012-07-17T14:44:31Z</time>
      </trkpt>
      <trkpt lat="42.79719" lon="-0.55519">
        <ele>1333.01</ele>
        <time>2012-07-17T14:44:40Z</time>
      </trkpt>
      <trkpt lat="42.79685" lon="-0.55537">
        <ele>1333.49</ele>
        <time>2012-07-17T14:49:07Z</time>
      </trkpt>
      <trkpt lat="42.79688" lon="-0.55528">
        <ele>1333.49</ele>
        <time>2012-07-17T14:49:28Z</time>
      </trkpt>
    </trkseg>
  </trk>
</gpx>